Time,TemperatureF,DewpointF,PressureIn,WindDirection,WindDirectionDegrees,WindSpeedMPH,WindSpeedGustMPH,Humidity,HourlyPrecipIn,Conditions,Clouds,dailyrainin,SoftwareType,DateUTC
2013-03-04 00:00:00,36.5,28.0,30.04,East,98,4.0,7.0,71,0.00,,---,0.00,VWS V14.01,2013-03-04 06:00:00,
2013-03-04 00:01:00,37.1,27.9,30.05,SE,127,1.0,3.0,69,0.00,,---,0.00,VWS V14.01,2013-03-04 06:01:00,
2013-03-04 00:02:00,37.1,28.2,30.05,SE,127,2.0,3.0,70,0.00,,---,0.00,VWS V14.01,2013-03-04 06:02:00,
2013-03-04 00:06:00,37.1,27.9,30.05,SE,136,1.0,4.0,69,0.00,,---,0.00,VWS V14.01,2013-03-04 06:06:00,
2013-03-04 00:08:00,37.2,28.0,30.05,SE,136,2.0,4.0,69,0.00,,---,0.00,VWS V14.01,2013-03-04 06:08:00,
2013-03-04 00:11:00,37.2,28.0,30.06,SE,136,2.0,4.0,69,0.00,,---,0.00,VWS V14.01,2013-03-04 06:11:00,
2013-03-04 00:13:00,37.1,28.2,30.06,SE,136,2.0,4.0,70,0.00,,---,0.00,VWS V14.01,2013-03-04 06:13:00,
2013-03-04 00:16:00,37.1,28.2,30.05,SE,136,3.0,4.0,70,0.00,,---,0.00,VWS V14.01,2013-03-04 06:16:00,
2013-03-04 00:17:00,37.1,28.2,30.05,SE,136,2.0,4.0,70,0.00,,---,0.00,VWS V14.01,2013-03-04 06:17:00,
2013-03-04 00:18:00,37.1,28.2,30.05,SE,136,3.0,4.0,70,0.00,,---,0.00,VWS V14.01,2013-03-04 06:18:00,
2013-03-04 00:21:00,37.1,28.2,30.05,SE,133,3.0,5.0,70,0.00,,---,0.00,VWS V14.01,2013-03-04 06:21:00,
2013-03-04 00:22:00,37.1,28.2,30.05,SE,133,2.0,5.0,70,0.00,,---,0.00,VWS V14.01,2013-03-04 06:22:00,
2013-03-04 00:23:00,37.1,27.9,30.05,SE,133,3.0,5.0,69,0.00,,---,0.00,VWS V14.01,2013-03-04 06:23:00,
2013-03-04 00:26:00,37.1,28.2,30.05,SE,131,3.0,5.0,70,0.00,,---,0.00,VWS V14.01,2013-03-04 06:26:00,
2013-03-04 00:27:00,37.1,28.2,30.05,SE,131,3.0,5.0,70,0.00,,---,0.00,VWS V14.01,2013-03-04 06:27:00,
2013-03-04 00:28:00,37.1,27.9,30.05,SE,131,3.0,3.0,69,0.00,,---,0.00,VWS V14.01,2013-03-04 06:28:00,
2013-03-04 00:30:00,36.6,27.8,30.04,ESE,115,6.0,6.0,70,0.00,,---,0.00,VWS V14.01,2013-03-04 06:30:00,
2013-03-04 00:31:00,37.0,28.1,30.05,SE,131,4.0,4.0,70,0.00,,---,0.00,VWS V14.01,2013-03-04 06:31:00,
2013-03-04 00:32:00,36.9,28.0,30.05,SE,128,3.0,5.0,70,0.00,,---,0.00,VWS V14.01,2013-03-04 06:32:00,
2013-03-04 00:33:00,36.9,28.0,30.05,SE,127,4.0,5.0,70,0.00,,---,0.00,VWS V14.01,2013-03-04 06:33:00,
2013-03-04 00:36:00,36.9,28.0,30.05,East,95,5.0,5.0,70,0.00,,---,0.00,VWS V14.01,2013-03-04 06:36:00,
2013-03-04 00:37:00,36.9,28.0,30.05,East,95,4.0,5.0,70,0.00,,---,0.00,VWS V14.01,2013-03-04 06:37:00,
2013-03-04 00:38:00,37.0,28.1,30.05,ESE,106,2.0,5.0,70,0.00,,---,0.00,VWS V14.01,2013-03-04 06:38:00,
2013-03-04 00:41:00,36.9,28.0,30.05,ESE,106,3.0,5.0,70,0.00,,---,0.00,VWS V14.01,2013-03-04 06:41:00,
2013-03-04 00:42:00,36.9,28.0,30.04,ESE,106,3.0,5.0,70,0.00,,---,0.00,VWS V14.01,2013-03-04 06:42:00,
2013-03-04 00:43:00,36.9,28.0,30.05,East,96,3.0,5.0,70,0.00,,---,0.00,VWS V14.01,2013-03-04 06:43:00,
2013-03-04 00:46:00,36.8,28.0,30.04,East,96,3.0,5.0,70,0.00,,---,0.00,VWS V14.01,2013-03-04 06:46:00,
2013-03-04 00:47:00,36.8,28.0,30.04,East,96,2.0,5.0,70,0.00,,---,0.00,VWS V14.01,2013-03-04 06:47:00,
2013-03-04 00:48:00,36.8,28.0,30.04,East,96,3.0,5.0,70,0.00,,---,0.00,VWS V14.01,2013-03-04 06:48:00,
2013-03-04 00:52:00,36.6,28.1,30.05,East,95,3.0,5.0,71,0.00,,---,0.00,VWS V14.01,2013-03-04 06:52:00,
2013-03-04 00:53:00,36.6,28.1,30.04,ESE,103,4.0,5.0,71,0.00,,---,0.00,VWS V14.01,2013-03-04 06:53:00,
2013-03-04 00:57:00,36.5,28.0,30.04,East,90,7.0,7.0,71,0.00,,---,0.00,VWS V14.01,2013-03-04 06:57:00,
2013-03-04 00:58:00,36.6,28.1,30.04,East,98,3.0,5.0,71,0.00,,---,0.00,VWS V14.01,2013-03-04 06:58:00,
2013-03-04 01:00:00,36.4,27.6,30.03,ESE,108,2.0,6.0,70,0.00,,---,0.00,VWS V14.01,2013-03-04 07:00:00,
2013-03-04 01:02:00,36.6,28.1,30.04,ESE,104,5.0,5.0,71,0.00,,---,0.00,VWS V14.01,2013-03-04 07:02:00,
2013-03-04 01:03:00,36.6,27.8,30.04,ESE,103,3.0,5.0,70,0.00,,---,0.00,VWS V14.01,2013-03-04 07:03:00,
2013-03-04 01:07:00,36.6,28.1,30.04,ESE,111,3.0,5.0,71,0.00,,---,0.00,VWS V14.01,2013-03-04 07:07:00,
2013-03-04 01:08:00,36.6,27.8,30.04,ESE,111,3.0,5.0,70,0.00,,---,0.00,VWS V14.01,2013-03-04 07:08:00,
2013-03-04 01:12:00,36.6,27.8,30.04,ESE,104,3.0,5.0,70,0.00,,---,0.00,VWS V14.01,2013-03-04 07:12:00,
2013-03-04 01:13:00,36.6,27.8,30.04,ESE,104,2.0,5.0,70,0.00,,---,0.00,VWS V14.01,2013-03-04 07:13:00,
2013-03-04 01:17:00,36.6,27.8,30.04,ESE,112,3.0,5.0,70,0.00,,---,0.00,VWS V14.01,2013-03-04 07:17:00,
2013-03-04 01:18:00,36.6,27.8,30.04,ESE,114,4.0,5.0,70,0.00,,---,0.00,VWS V14.01,2013-03-04 07:18:00,
2013-03-04 01:19:00,36.6,27.4,30.04,ESE,114,3.0,5.0,69,0.00,,---,0.00,VWS V14.01,2013-03-04 07:19:00,
2013-03-04 01:22:00,36.6,27.8,30.04,ESE,108,3.0,6.0,70,0.00,,---,0.00,VWS V14.01,2013-03-04 07:22:00,
2013-03-04 01:23:00,36.6,27.8,30.04,ESE,108,3.0,6.0,70,0.00,,---,0.00,VWS V14.01,2013-03-04 07:23:00,
2013-03-04 01:24:00,36.6,27.8,30.04,ESE,116,3.0,6.0,70,0.00,,---,0.00,VWS V14.01,2013-03-04 07:24:00,
2013-03-04 01:28:00,36.6,27.8,30.04,ESE,111,3.0,6.0,70,0.00,,---,0.00,VWS V14.01,2013-03-04 07:28:00,
2013-03-04 01:29:00,36.6,27.4,30.04,ESE,112,3.0,6.0,69,0.00,,---,0.00,VWS V14.01,2013-03-04 07:29:00,
2013-03-04 01:30:00,36.3,27.8,30.01,ESE,102,4.0,5.0,71,0.00,,---,0.00,VWS V14.01,2013-03-04 07:30:00,
2013-03-04 01:33:00,36.6,27.8,30.03,ESE,116,4.0,6.0,70,0.00,,---,0.00,VWS V14.01,2013-03-04 07:33:00,
2013-03-04 01:34:00,36.6,27.8,30.04,ESE,114,5.0,6.0,70,0.00,,---,0.00,VWS V14.01,2013-03-04 07:34:00,
2013-03-04 01:38:00,36.6,27.8,30.04,East,100,4.0,6.0,70,0.00,,---,0.00,VWS V14.01,2013-03-04 07:38:00,
2013-03-04 01:39:00,36.6,27.4,30.04,ESE,108,2.0,6.0,69,0.00,,---,0.00,VWS V14.01,2013-03-04 07:39:00,
2013-03-04 01:43:00,36.6,27.8,30.04,ESE,108,4.0,6.0,70,0.00,,---,0.00,VWS V14.01,2013-03-04 07:43:00,
2013-03-04 01:44:00,36.6,28.1,30.03,ESE,108,3.0,6.0,71,0.00,,---,0.00,VWS V14.01,2013-03-04 07:44:00,
2013-03-04 01:48:00,36.5,27.7,30.03,ESE,108,1.0,6.0,70,0.00,,---,0.00,VWS V14.01,2013-03-04 07:48:00,
2013-03-04 01:49:00,36.5,27.7,30.03,ESE,108,2.0,6.0,70,0.00,,---,0.00,VWS V14.01,2013-03-04 07:49:00,
2013-03-04 01:53:00,36.4,27.6,30.03,ESE,108,2.0,6.0,70,0.00,,---,0.00,VWS V14.01,2013-03-04 07:53:00,
2013-03-04 01:54:00,36.4,27.6,30.03,ESE,108,2.0,6.0,70,0.00,,---,0.00,VWS V14.01,2013-03-04 07:54:00,
2013-03-04 01:58:00,36.4,27.6,30.03,ESE,108,2.0,2.0,70,0.00,,---,0.00,VWS V14.01,2013-03-04 07:58:00,
2013-03-04 01:59:00,36.4,27.6,30.03,ESE,108,2.0,3.0,70,0.00,,---,0.00,VWS V14.01,2013-03-04 07:59:00,
2013-03-04 02:00:00,36.4,27.6,30.00,East,91,2.0,6.0,70,0.00,,---,0.00,VWS V14.01,2013-03-04 08:00:00,
2013-03-04 02:03:00,36.3,27.5,30.02,ESE,108,2.0,3.0,70,0.00,,---,0.00,VWS V14.01,2013-03-04 08:03:00,
2013-03-04 02:04:00,36.3,27.5,30.02,ESE,108,2.0,3.0,70,0.00,,---,0.00,VWS V14.01,2013-03-04 08:04:00,
2013-03-04 02:05:00,36.3,27.5,30.02,ESE,108,2.0,3.0,70,0.00,,---,0.00,VWS V14.01,2013-03-04 08:05:00,
2013-03-04 02:08:00,36.2,27.4,30.02,East,89,4.0,5.0,70,0.00,,---,0.00,VWS V14.01,2013-03-04 08:08:00,
2013-03-04 02:10:00,36.2,27.7,30.02,East,97,3.0,5.0,71,0.00,,---,0.00,VWS V14.01,2013-03-04 08:10:00,
2013-03-04 02:13:00,36.3,27.8,30.02,ESE,102,3.0,5.0,71,0.00,,---,0.00,VWS V14.01,2013-03-04 08:13:00,
2013-03-04 02:15:00,36.3,27.8,30.02,ESE,111,3.0,5.0,71,0.00,,---,0.00,VWS V14.01,2013-03-04 08:15:00,
2013-03-04 02:18:00,36.2,27.7,30.02,ESE,105,4.0,5.0,71,0.00,,---,0.00,VWS V14.01,2013-03-04 08:18:00,
2013-03-04 02:20:00,36.2,27.7,30.02,ESE,105,4.0,5.0,71,0.00,,---,0.00,VWS V14.01,2013-03-04 08:20:00,
2013-03-04 02:23:00,36.3,27.8,30.01,ESE,105,3.0,5.0,71,0.00,,---,0.00,VWS V14.01,2013-03-04 08:23:00,
2013-03-04 02:25:00,36.3,27.8,30.01,ESE,103,3.0,5.0,71,0.00,,---,0.00,VWS V14.01,2013-03-04 08:25:00,
2013-03-04 02:28:00,36.3,27.8,30.01,ESE,102,2.0,4.0,71,0.00,,---,0.00,VWS V14.01,2013-03-04 08:28:00,
2013-03-04 02:29:00,36.2,27.7,30.01,ESE,102,3.0,4.0,71,0.00,,---,0.00,VWS V14.01,2013-03-04 08:29:00,
2013-03-04 02:30:00,36.2,27.7,30.01,ESE,102,4.0,4.0,71,0.00,,---,0.00,VWS V14.01,2013-03-04 08:30:00,
2013-03-04 02:33:00,36.4,27.9,30.01,ESE,108,3.0,5.0,71,0.00,,---,0.00,VWS V14.01,2013-03-04 08:33:00,
2013-03-04 02:34:00,36.4,27.6,30.01,ESE,108,4.0,5.0,70,0.00,,---,0.00,VWS V14.01,2013-03-04 08:34:00,
2013-03-04 02:35:00,36.4,27.9,30.01,East,93,4.0,6.0,71,0.00,,---,0.00,VWS V14.01,2013-03-04 08:35:00,
2013-03-04 02:36:00,36.4,27.6,30.01,ESE,103,5.0,6.0,70,0.00,,---,0.00,VWS V14.01,2013-03-04 08:36:00,
2013-03-04 02:39:00,36.5,28.0,30.01,ESE,113,5.0,6.0,71,0.00,,---,0.00,VWS V14.01,2013-03-04 08:39:00,
2013-03-04 02:40:00,36.5,27.7,30.01,East,100,4.0,6.0,70,0.00,,---,0.00,VWS V14.01,2013-03-04 08:40:00,
2013-03-04 02:41:00,36.5,27.7,30.01,East,100,3.0,6.0,70,0.00,,---,0.00,VWS V14.01,2013-03-04 08:41:00,
2013-03-04 02:44:00,36.5,27.7,30.01,ESE,109,3.0,6.0,70,0.00,,---,0.00,VWS V14.01,2013-03-04 08:44:00,
2013-03-04 02:45:00,36.5,27.7,30.00,ESE,102,3.0,6.0,70,0.00,,---,0.00,VWS V14.01,2013-03-04 08:45:00,
2013-03-04 02:46:00,36.5,27.7,30.00,ESE,102,3.0,6.0,70,0.00,,---,0.00,VWS V14.01,2013-03-04 08:46:00,
2013-03-04 02:49:00,36.5,28.0,30.01,East,100,3.0,6.0,71,0.00,,---,0.00,VWS V14.01,2013-03-04 08:49:00,
2013-03-04 02:50:00,36.4,27.6,30.01,East,100,3.0,6.0,70,0.00,,---,0.00,VWS V14.01,2013-03-04 08:50:00,
2013-03-04 02:51:00,36.4,27.6,30.01,ESE,102,4.0,6.0,70,0.00,,---,0.00,VWS V14.01,2013-03-04 08:51:00,
2013-03-04 02:54:00,36.5,27.7,30.01,East,91,2.0,6.0,70,0.00,,---,0.00,VWS V14.01,2013-03-04 08:54:00,
2013-03-04 02:55:00,36.4,27.6,30.00,East,91,3.0,6.0,70,0.00,,---,0.00,VWS V14.01,2013-03-04 08:55:00,
2013-03-04 02:56:00,36.4,27.6,30.00,East,91,3.0,6.0,70,0.00,,---,0.00,VWS V14.01,2013-03-04 08:56:00,
2013-03-04 02:59:00,36.3,27.8,30.00,East,91,4.0,4.0,71,0.00,,---,0.00,VWS V14.01,2013-03-04 08:59:00,
2013-03-04 03:00:00,36.3,27.5,30.00,East,92,3.0,4.0,70,0.00,,---,0.00,VWS V14.01,2013-03-04 09:00:00,
2013-03-04 03:01:00,36.3,27.5,30.00,East,92,3.0,4.0,70,0.00,,---,0.00,VWS V14.01,2013-03-04 09:01:00,
2013-03-04 03:04:00,36.2,27.7,30.00,East,93,3.0,5.0,71,0.00,,---,0.00,VWS V14.01,2013-03-04 09:04:00,
2013-03-04 03:05:00,36.2,27.7,30.00,East,93,2.0,5.0,71,0.00,,---,0.00,VWS V14.01,2013-03-04 09:05:00,
2013-03-04 03:06:00,36.2,27.7,30.00,East,89,4.0,5.0,71,0.00,,---,0.00,VWS V14.01,2013-03-04 09:06:00,
2013-03-04 03:10:00,36.2,27.7,30.00,East,94,3.0,5.0,71,0.00,,---,0.00,VWS V14.01,2013-03-04 09:10:00,
2013-03-04 03:11:00,36.2,27.7,30.00,East,95,4.0,5.0,71,0.00,,---,0.00,VWS V14.01,2013-03-04 09:11:00,
2013-03-04 03:15:00,36.2,27.7,30.00,East,98,2.0,5.0,71,0.00,,---,0.00,VWS V14.01,2013-03-04 09:15:00,
2013-03-04 03:16:00,36.2,27.7,30.00,East,93,4.0,5.0,71,0.00,,---,0.00,VWS V14.01,2013-03-04 09:16:00,
2013-03-04 03:20:00,36.4,28.2,30.00,ESE,108,3.0,8.0,72,0.00,,---,0.00,VWS V14.01,2013-03-04 09:20:00,
2013-03-04 03:21:00,36.4,28.2,30.00,East,100,2.0,8.0,72,0.00,,---,0.00,VWS V14.01,2013-03-04 09:21:00,
2013-03-04 03:25:00,36.5,28.0,30.00,East,99,4.0,8.0,71,0.00,,---,0.00,VWS V14.01,2013-03-04 09:25:00,
2013-03-04 03:26:00,36.5,28.0,30.00,East,98,4.0,8.0,71,0.00,,---,0.00,VWS V14.01,2013-03-04 09:26:00,
2013-03-04 03:27:00,36.6,28.1,30.00,East,97,2.0,8.0,71,0.00,,---,0.00,VWS V14.01,2013-03-04 09:27:00,
2013-03-04 03:30:00,36.6,27.8,30.00,East,101,4.0,5.0,70,0.00,,---,0.00,VWS V14.01,2013-03-04 09:30:00,
2013-03-04 03:31:00,36.6,28.1,30.00,East,92,5.0,5.0,71,0.00,,---,0.00,VWS V14.01,2013-03-04 09:31:00,
2013-03-04 03:32:00,36.6,28.1,30.00,East,98,4.0,6.0,71,0.00,,---,0.00,VWS V14.01,2013-03-04 09:32:00,
2013-03-04 03:35:00,36.6,28.1,30.00,ESE,102,2.0,6.0,71,0.00,,---,0.00,VWS V14.01,2013-03-04 09:35:00,
2013-03-04 03:36:00,36.5,28.0,29.99,East,97,3.0,6.0,71,0.00,,---,0.00,VWS V14.01,2013-03-04 09:36:00,
2013-03-04 03:37:00,36.5,28.0,30.00,East,100,3.0,6.0,71,0.00,,---,0.00,VWS V14.01,2013-03-04 09:37:00,
2013-03-04 03:40:00,36.6,28.1,30.00,East,95,4.0,6.0,71,0.00,,---,0.00,VWS V14.01,2013-03-04 09:40:00,
2013-03-04 03:41:00,36.6,28.1,30.00,East,95,3.0,6.0,71,0.00,,---,0.00,VWS V14.01,2013-03-04 09:41:00,
2013-03-04 03:42:00,36.6,28.1,30.00,East,95,4.0,6.0,71,0.00,,---,0.00,VWS V14.01,2013-03-04 09:42:00,
2013-03-04 03:45:00,36.6,27.8,30.00,East,87,2.0,6.0,70,0.00,,---,0.00,VWS V14.01,2013-03-04 09:45:00,
2013-03-04 03:46:00,36.7,28.2,30.00,East,87,3.0,6.0,71,0.00,,---,0.00,VWS V14.01,2013-03-04 09:46:00,
2013-03-04 03:47:00,36.6,27.8,30.00,East,87,3.0,6.0,70,0.00,,---,0.00,VWS V14.01,2013-03-04 09:47:00,
2013-03-04 03:50:00,36.7,27.9,30.00,ENE,77,2.0,6.0,70,0.00,,---,0.00,VWS V14.01,2013-03-04 09:50:00,
2013-03-04 03:51:00,36.7,28.2,30.00,East,87,3.0,6.0,71,0.00,,---,0.00,VWS V14.01,2013-03-04 09:51:00,
2013-03-04 03:52:00,36.7,27.9,29.99,ENE,70,2.0,6.0,70,0.00,,---,0.00,VWS V14.01,2013-03-04 09:52:00,
2013-03-04 03:55:00,36.6,28.1,29.99,East,93,3.0,8.0,71,0.00,,---,0.00,VWS V14.01,2013-03-04 09:55:00,
2013-03-04 03:56:00,36.6,28.1,29.99,East,87,4.0,8.0,71,0.00,,---,0.00,VWS V14.01,2013-03-04 09:56:00,
2013-03-04 03:57:00,36.6,28.1,29.99,East,87,3.0,8.0,71,0.00,,---,0.00,VWS V14.01,2013-03-04 09:57:00,
2013-03-04 04:00:00,37.2,27.3,29.98,ENE,65,6.0,9.0,67,0.00,,---,0.00,VWS V14.01,2013-03-04 10:00:00,
2013-03-04 04:01:00,36.7,27.9,29.99,East,89,7.0,9.0,70,0.00,,---,0.00,VWS V14.01,2013-03-04 10:01:00,
2013-03-04 04:02:00,36.7,27.9,29.99,East,83,5.0,9.0,70,0.00,,---,0.00,VWS V14.01,2013-03-04 10:02:00,
2013-03-04 04:06:00,36.8,27.6,29.99,East,90,4.0,9.0,69,0.00,,---,0.00,VWS V14.01,2013-03-04 10:06:00,
2013-03-04 04:07:00,36.9,27.7,29.99,East,91,5.0,9.0,69,0.00,,---,0.00,VWS V14.01,2013-03-04 10:07:00,
2013-03-04 04:08:00,36.8,28.0,29.98,East,89,3.0,9.0,70,0.00,,---,0.00,VWS V14.01,2013-03-04 10:08:00,
2013-03-04 04:11:00,36.8,28.0,29.99,East,90,3.0,9.0,70,0.00,,---,0.00,VWS V14.01,2013-03-04 10:11:00,
2013-03-04 04:12:00,36.8,28.0,29.99,East,87,3.0,9.0,70,0.00,,---,0.00,VWS V14.01,2013-03-04 10:12:00,
2013-03-04 04:13:00,36.9,27.7,29.99,ENE,73,4.0,9.0,69,0.00,,---,0.00,VWS V14.01,2013-03-04 10:13:00,
2013-03-04 04:16:00,37.0,27.8,29.99,East,79,5.0,9.0,69,0.00,,---,0.00,VWS V14.01,2013-03-04 10:16:00,
2013-03-04 04:17:00,37.0,27.8,29.99,East,100,3.0,9.0,69,0.00,,---,0.00,VWS V14.01,2013-03-04 10:17:00,
2013-03-04 04:19:00,37.0,27.4,29.98,ENE,66,5.0,10.0,68,0.00,,---,0.00,VWS V14.01,2013-03-04 10:19:00,
2013-03-04 04:21:00,37.0,27.4,29.99,East,82,2.0,10.0,68,0.00,,---,0.00,VWS V14.01,2013-03-04 10:21:00,
2013-03-04 04:22:00,37.0,27.8,29.99,ENE,73,4.0,10.0,69,0.00,,---,0.00,VWS V14.01,2013-03-04 10:22:00,
2013-03-04 04:24:00,37.0,27.8,29.99,ENE,66,6.0,10.0,69,0.00,,---,0.00,VWS V14.01,2013-03-04 10:24:00,
2013-03-04 04:26:00,37.0,27.8,29.99,East,86,4.0,10.0,69,0.00,,---,0.00,VWS V14.01,2013-03-04 10:26:00,
2013-03-04 04:27:00,37.0,27.8,29.99,ENE,66,5.0,10.0,69,0.00,,---,0.00,VWS V14.01,2013-03-04 10:27:00,
2013-03-04 04:29:00,37.0,27.4,29.99,East,91,4.0,5.0,68,0.00,,---,0.00,VWS V14.01,2013-03-04 10:29:00,
2013-03-04 04:30:00,37.4,27.8,29.97,East,88,10.0,10.0,68,0.00,,---,0.00,VWS V14.01,2013-03-04 10:30:00,
2013-03-04 04:31:00,37.0,27.4,29.99,East,89,3.0,6.0,68,0.00,,---,0.00,VWS V14.01,2013-03-04 10:31:00,
2013-03-04 04:32:00,37.0,27.4,29.98,East,89,3.0,6.0,68,0.00,,---,0.00,VWS V14.01,2013-03-04 10:32:00,
2013-03-04 04:34:00,37.0,27.4,29.99,East,85,5.0,7.0,68,0.00,,---,0.00,VWS V14.01,2013-03-04 10:34:00,
2013-03-04 04:36:00,37.0,27.4,29.99,East,97,4.0,8.0,68,0.00,,---,0.00,VWS V14.01,2013-03-04 10:36:00,
2013-03-04 04:37:00,37.1,27.5,29.99,East,84,4.0,8.0,68,0.00,,---,0.00,VWS V14.01,2013-03-04 10:37:00,
2013-03-04 04:39:00,37.1,27.9,29.99,ENE,76,3.0,8.0,69,0.00,,---,0.00,VWS V14.01,2013-03-04 10:39:00,
2013-03-04 04:41:00,37.1,27.5,29.99,ENE,60,2.0,8.0,68,0.00,,---,0.00,VWS V14.01,2013-03-04 10:41:00,
2013-03-04 04:42:00,37.1,27.5,29.99,East,81,4.0,8.0,68,0.00,,---,0.00,VWS V14.01,2013-03-04 10:42:00,
2013-03-04 04:44:00,37.1,27.5,29.98,East,89,3.0,8.0,68,0.00,,---,0.00,VWS V14.01,2013-03-04 10:44:00,
2013-03-04 04:47:00,37.1,27.9,29.98,ENE,66,6.0,9.0,69,0.00,,---,0.00,VWS V14.01,2013-03-04 10:47:00,
2013-03-04 04:48:00,37.1,27.9,29.99,East,87,7.0,9.0,69,0.00,,---,0.00,VWS V14.01,2013-03-04 10:48:00,
2013-03-04 04:49:00,37.1,27.5,29.99,East,83,4.0,9.0,68,0.00,,---,0.00,VWS V14.01,2013-03-04 10:49:00,
2013-03-04 04:52:00,37.1,27.5,29.99,ENE,65,5.0,9.0,68,0.00,,---,0.00,VWS V14.01,2013-03-04 10:52:00,
2013-03-04 04:53:00,37.2,27.6,29.99,East,89,4.0,9.0,68,0.00,,---,0.00,VWS V14.01,2013-03-04 10:53:00,
2013-03-04 04:54:00,37.2,27.6,29.98,East,83,4.0,9.0,68,0.00,,---,0.00,VWS V14.01,2013-03-04 10:54:00,
2013-03-04 04:57:00,37.2,27.3,29.98,ENE,69,6.0,9.0,67,0.00,,---,0.00,VWS V14.01,2013-03-04 10:57:00,
2013-03-04 04:58:00,37.2,27.6,29.98,ENE,75,4.0,6.0,68,0.00,,---,0.00,VWS V14.01,2013-03-04 10:58:00,
2013-03-04 05:00:00,37.3,27.4,29.98,ESE,113,6.0,9.0,67,0.00,,---,0.00,VWS V14.01,2013-03-04 11:00:00,
2013-03-04 05:02:00,37.3,27.4,29.98,East,87,9.0,10.0,67,0.00,,---,0.00,VWS V14.01,2013-03-04 11:02:00,
2013-03-04 05:03:00,37.3,27.4,29.98,ESE,104,5.0,10.0,67,0.00,,---,0.00,VWS V14.01,2013-03-04 11:03:00,
2013-03-04 05:05:00,37.3,27.7,29.98,East,98,5.0,10.0,68,0.00,,---,0.00,VWS V14.01,2013-03-04 11:05:00,
2013-03-04 05:08:00,37.3,27.7,29.98,East,97,3.0,10.0,68,0.00,,---,0.00,VWS V14.01,2013-03-04 11:08:00,
2013-03-04 05:10:00,37.3,27.7,29.98,East,81,4.0,10.0,68,0.00,,---,0.00,VWS V14.01,2013-03-04 11:10:00,
2013-03-04 05:13:00,37.3,27.4,29.98,ESE,103,6.0,10.0,67,0.00,,---,0.00,VWS V14.01,2013-03-04 11:13:00,
2013-03-04 05:15:00,37.4,27.5,29.98,East,92,8.0,10.0,67,0.00,,---,0.00,VWS V14.01,2013-03-04 11:15:00,
2013-03-04 05:18:00,37.4,27.5,29.97,East,92,5.0,10.0,67,0.00,,---,0.00,VWS V14.01,2013-03-04 11:18:00,
2013-03-04 05:20:00,37.4,27.8,29.97,East,101,5.0,10.0,68,0.00,,---,0.00,VWS V14.01,2013-03-04 11:20:00,
2013-03-04 05:23:00,37.3,27.4,29.97,East,85,5.0,10.0,67,0.00,,---,0.00,VWS V14.01,2013-03-04 11:23:00,
2013-03-04 05:25:00,37.3,27.4,29.97,ENE,68,6.0,10.0,67,0.00,,---,0.00,VWS V14.01,2013-03-04 11:25:00,
2013-03-04 05:28:00,37.3,27.4,29.97,East,81,5.0,10.0,67,0.00,,---,0.00,VWS V14.01,2013-03-04 11:28:00,
2013-03-04 05:30:00,37.3,27.4,29.97,East,90,7.0,10.0,67,0.00,,---,0.00,VWS V14.01,2013-03-04 11:30:00,
2013-03-04 05:33:00,37.4,27.5,29.96,East,96,6.0,11.0,67,0.00,,---,0.00,VWS V14.01,2013-03-04 11:33:00,
2013-03-04 05:36:00,37.4,27.5,29.96,ENE,63,7.0,11.0,67,0.00,,---,0.00,VWS V14.01,2013-03-04 11:36:00,
2013-03-04 05:38:00,37.4,27.5,29.96,East,81,9.0,11.0,67,0.00,,---,0.00,VWS V14.01,2013-03-04 11:38:00,
2013-03-04 05:39:00,37.4,27.5,29.96,NE,50,8.0,11.0,67,0.00,,---,0.00,VWS V14.01,2013-03-04 11:39:00,
2013-03-04 05:41:00,37.4,27.5,29.96,East,82,8.0,11.0,67,0.00,,---,0.00,VWS V14.01,2013-03-04 11:41:00,
2013-03-04 05:43:00,37.5,27.5,29.96,East,85,8.0,11.0,67,0.00,,---,0.00,VWS V14.01,2013-03-04 11:43:00,
2013-03-04 05:44:00,37.5,27.5,29.96,East,83,8.0,11.0,67,0.00,,---,0.00,VWS V14.01,2013-03-04 11:44:00,
2013-03-04 05:46:00,37.5,27.2,29.96,East,92,7.0,11.0,66,0.00,,---,0.00,VWS V14.01,2013-03-04 11:46:00,
2013-03-04 05:49:00,37.5,27.2,29.95,East,96,6.0,11.0,66,0.00,,---,0.00,VWS V14.01,2013-03-04 11:49:00,
2013-03-04 05:51:00,37.5,27.2,29.96,ENE,73,5.0,11.0,66,0.00,,---,0.00,VWS V14.01,2013-03-04 11:51:00,
2013-03-04 05:54:00,37.5,27.2,29.95,East,87,8.0,11.0,66,0.00,,---,0.00,VWS V14.01,2013-03-04 11:54:00,
2013-03-04 05:56:00,37.5,27.2,29.95,ESE,102,7.0,11.0,66,0.00,,---,0.00,VWS V14.01,2013-03-04 11:56:00,
2013-03-04 05:59:00,37.6,27.6,29.95,East,87,7.0,8.0,67,0.00,,---,0.00,VWS V14.01,2013-03-04 11:59:00,
2013-03-04 06:00:00,37.9,27.6,29.96,East,82,3.0,12.0,66,0.00,,---,0.00,VWS V14.01,2013-03-04 12:00:00,
2013-03-04 06:01:00,37.6,27.3,29.96,ENE,74,8.0,12.0,66,0.00,,---,0.00,VWS V14.01,2013-03-04 12:01:00,
2013-03-04 06:04:00,37.7,27.4,29.96,ENE,75,9.0,12.0,66,0.00,,---,0.00,VWS V14.01,2013-03-04 12:04:00,
2013-03-04 06:05:00,37.7,27.4,29.96,East,82,11.0,12.0,66,0.00,,---,0.00,VWS V14.01,2013-03-04 12:05:00,
2013-03-04 06:06:00,37.7,27.4,29.96,ESE,102,6.0,12.0,66,0.00,,---,0.00,VWS V14.01,2013-03-04 12:06:00,
2013-03-04 06:09:00,37.7,27.4,29.96,East,85,9.0,12.0,66,0.00,,---,0.00,VWS V14.01,2013-03-04 12:09:00,
2013-03-04 06:10:00,37.7,27.4,29.96,East,90,4.0,12.0,66,0.00,,---,0.00,VWS V14.01,2013-03-04 12:10:00,
2013-03-04 06:11:00,37.8,27.5,29.96,East,89,7.0,12.0,66,0.00,,---,0.00,VWS V14.01,2013-03-04 12:11:00,
2013-03-04 06:14:00,37.7,27.4,29.96,ESE,120,4.0,12.0,66,0.00,,---,0.00,VWS V14.01,2013-03-04 12:14:00,
2013-03-04 06:15:00,37.7,27.4,29.96,East,99,8.0,12.0,66,0.00,,---,0.00,VWS V14.01,2013-03-04 12:15:00,
2013-03-04 06:16:00,37.7,27.4,29.96,East,90,7.0,12.0,66,0.00,,---,0.00,VWS V14.01,2013-03-04 12:16:00,
2013-03-04 06:19:00,37.8,27.5,29.96,ESE,112,6.0,12.0,66,0.00,,---,0.00,VWS V14.01,2013-03-04 12:19:00,
2013-03-04 06:20:00,37.7,27.8,29.96,ENE,75,3.0,12.0,67,0.00,,---,0.00,VWS V14.01,2013-03-04 12:20:00,
2013-03-04 06:22:00,37.7,27.8,29.96,East,90,3.0,12.0,67,0.00,,---,0.00,VWS V14.01,2013-03-04 12:22:00,
2013-03-04 06:24:00,37.7,27.4,29.96,East,97,5.0,12.0,66,0.00,,---,0.00,VWS V14.01,2013-03-04 12:24:00,
2013-03-04 06:25:00,37.7,27.4,29.96,East,88,8.0,12.0,66,0.00,,---,0.00,VWS V14.01,2013-03-04 12:25:00,
2013-03-04 06:27:00,37.7,27.4,29.95,ENE,71,3.0,12.0,66,0.00,,---,0.00,VWS V14.01,2013-03-04 12:27:00,
2013-03-04 06:29:00,37.7,27.4,29.95,East,83,4.0,7.0,66,0.00,,---,0.00,VWS V14.01,2013-03-04 12:29:00,
2013-03-04 06:30:00,37.7,27.4,29.95,ENE,58,5.0,7.0,66,0.00,,---,0.00,VWS V14.01,2013-03-04 12:30:00,
2013-03-04 06:32:00,37.7,27.4,29.96,East,95,7.0,12.0,66,0.00,,---,0.00,VWS V14.01,2013-03-04 12:32:00,
2013-03-04 06:35:00,37.7,27.4,29.96,East,95,5.0,12.0,66,0.00,,---,0.00,VWS V14.01,2013-03-04 12:35:00,
2013-03-04 06:38:00,37.8,27.5,29.96,ENE,62,6.0,12.0,66,0.00,,---,0.00,VWS V14.01,2013-03-04 12:38:00,
2013-03-04 06:40:00,37.8,27.5,29.96,ENE,67,6.0,12.0,66,0.00,,---,0.00,VWS V14.01,2013-03-04 12:40:00,
2013-03-04 06:41:00,37.8,27.5,29.96,ENE,66,6.0,12.0,66,0.00,,---,0.00,VWS V14.01,2013-03-04 12:41:00,
2013-03-04 06:43:00,37.8,27.5,29.96,East,89,5.0,12.0,66,0.00,,---,0.00,VWS V14.01,2013-03-04 12:43:00,
2013-03-04 06:45:00,37.8,27.5,29.96,East,90,8.0,12.0,66,0.00,,---,0.00,VWS V14.01,2013-03-04 12:45:00,
2013-03-04 06:46:00,37.8,27.5,29.96,East,85,7.0,12.0,66,0.00,,---,0.00,VWS V14.01,2013-03-04 12:46:00,
2013-03-04 06:48:00,37.8,27.5,29.96,ENE,78,9.0,12.0,66,0.00,,---,0.00,VWS V14.01,2013-03-04 12:48:00,
2013-03-04 06:50:00,37.8,27.5,29.96,ENE,77,8.0,12.0,66,0.00,,---,0.00,VWS V14.01,2013-03-04 12:50:00,
2013-03-04 06:51:00,37.8,27.5,29.95,East,91,8.0,12.0,66,0.00,,---,0.00,VWS V14.01,2013-03-04 12:51:00,
2013-03-04 06:53:00,37.8,27.5,29.95,ENE,77,4.0,12.0,66,0.00,,---,0.00,VWS V14.01,2013-03-04 12:53:00,
2013-03-04 06:55:00,37.8,27.5,29.95,East,84,7.0,12.0,66,0.00,,---,0.00,VWS V14.01,2013-03-04 12:55:00,
2013-03-04 06:56:00,37.8,27.5,29.96,East,85,8.0,12.0,66,0.00,,---,0.00,VWS V14.01,2013-03-04 12:56:00,
2013-03-04 06:58:00,37.9,27.6,29.96,East,85,8.0,8.0,66,0.00,,---,0.00,VWS V14.01,2013-03-04 12:58:00,
2013-03-04 07:00:00,37.8,27.5,29.95,ENE,77,4.0,8.0,66,0.00,,---,0.00,VWS V14.01,2013-03-04 13:00:00,
2013-03-04 07:01:00,37.9,27.6,29.96,ENE,73,5.0,8.0,66,0.00,,---,0.00,VWS V14.01,2013-03-04 13:01:00,
2013-03-04 07:03:00,37.8,27.8,29.95,ENE,59,2.0,8.0,67,0.00,,---,0.00,VWS V14.01,2013-03-04 13:03:00,
2013-03-04 07:05:00,37.8,27.8,29.95,East,82,4.0,8.0,67,0.00,,---,0.00,VWS V14.01,2013-03-04 13:05:00,
2013-03-04 07:06:00,37.8,27.5,29.95,ENE,71,3.0,8.0,66,0.00,,---,0.00,VWS V14.01,2013-03-04 13:06:00,
2013-03-04 07:08:00,37.9,27.6,29.95,ENE,70,5.0,8.0,66,0.00,,---,0.00,VWS V14.01,2013-03-04 13:08:00,
2013-03-04 07:10:00,37.9,27.6,29.95,ENE,78,5.0,8.0,66,0.00,,---,0.00,VWS V14.01,2013-03-04 13:10:00,
2013-03-04 07:11:00,37.9,27.6,29.95,East,90,3.0,8.0,66,0.00,,---,0.00,VWS V14.01,2013-03-04 13:11:00,
2013-03-04 07:13:00,38.0,27.7,29.95,ENE,68,7.0,11.0,66,0.00,,---,0.00,VWS V14.01,2013-03-04 13:13:00,
2013-03-04 07:15:00,38.0,27.7,29.95,ENE,68,7.0,11.0,66,0.00,,---,0.00,VWS V14.01,2013-03-04 13:15:00,
2013-03-04 07:16:00,38.0,28.0,29.95,ENE,71,6.0,11.0,67,0.00,,---,0.00,VWS V14.01,2013-03-04 13:16:00,
2013-03-04 07:19:00,38.1,27.8,29.95,East,79,4.0,11.0,66,0.00,,---,0.00,VWS V14.01,2013-03-04 13:19:00,
2013-03-04 07:20:00,38.1,28.1,29.95,East,81,3.0,11.0,67,0.00,,---,0.00,VWS V14.01,2013-03-04 13:20:00,
2013-03-04 07:21:00,38.2,28.2,29.95,ENE,62,7.0,11.0,67,0.00,,---,0.00,VWS V14.01,2013-03-04 13:21:00,
2013-03-04 07:24:00,38.2,27.9,29.95,East,91,9.0,11.0,66,0.00,,---,0.00,VWS V14.01,2013-03-04 13:24:00,
2013-03-04 07:25:00,38.3,28.0,29.95,East,100,5.0,11.0,66,0.00,,---,0.00,VWS V14.01,2013-03-04 13:25:00,
2013-03-04 07:26:00,38.3,28.0,29.95,ENE,76,7.0,11.0,66,0.00,,---,0.00,VWS V14.01,2013-03-04 13:26:00,
2013-03-04 07:27:00,38.3,28.0,29.95,ENE,67,8.0,11.0,66,0.00,,---,0.00,VWS V14.01,2013-03-04 13:27:00,
2013-03-04 07:29:00,38.4,27.7,29.94,East,89,8.0,13.0,65,0.00,,---,0.00,VWS V14.01,2013-03-04 13:29:00,
2013-03-04 07:30:00,41.7,28.4,29.93,ESE,110,14.0,18.0,59,0.00,,---,0.00,VWS V14.01,2013-03-04 13:30:00,
2013-03-04 07:31:00,38.5,27.8,29.95,ENE,71,8.0,13.0,65,0.00,,---,0.00,VWS V14.01,2013-03-04 13:31:00,
2013-03-04 07:34:00,38.5,28.5,29.95,East,90,7.0,13.0,67,0.00,,---,0.00,VWS V14.01,2013-03-04 13:34:00,
2013-03-04 07:36:00,38.6,27.9,29.95,East,81,10.0,13.0,65,0.00,,---,0.00,VWS V14.01,2013-03-04 13:36:00,
2013-03-04 07:37:00,38.6,27.9,29.95,ESE,102,6.0,13.0,65,0.00,,---,0.00,VWS V14.01,2013-03-04 13:37:00,
2013-03-04 07:40:00,38.7,28.0,29.95,East,86,8.0,13.0,65,0.00,,---,0.00,VWS V14.01,2013-03-04 13:40:00,
2013-03-04 07:41:00,38.8,28.1,29.94,East,90,10.0,13.0,65,0.00,,---,0.00,VWS V14.01,2013-03-04 13:41:00,
2013-03-04 07:42:00,38.8,28.4,29.94,East,92,9.0,13.0,66,0.00,,---,0.00,VWS V14.01,2013-03-04 13:42:00,
2013-03-04 07:45:00,38.9,28.1,29.94,East,90,9.0,13.0,65,0.00,,---,0.00,VWS V14.01,2013-03-04 13:45:00,
2013-03-04 07:46:00,39.0,28.2,29.94,East,94,6.0,13.0,65,0.00,,---,0.00,VWS V14.01,2013-03-04 13:46:00,
2013-03-04 07:47:00,39.0,28.2,29.94,East,93,8.0,13.0,65,0.00,,---,0.00,VWS V14.01,2013-03-04 13:47:00,
2013-03-04 07:50:00,39.1,28.3,29.94,East,91,14.0,14.0,65,0.00,,---,0.00,VWS V14.01,2013-03-04 13:50:00,
2013-03-04 07:51:00,39.3,28.2,29.94,East,88,7.0,15.0,64,0.00,,---,0.00,VWS V14.01,2013-03-04 13:51:00,
2013-03-04 07:52:00,39.3,28.5,29.94,East,88,9.0,15.0,65,0.00,,---,0.00,VWS V14.01,2013-03-04 13:52:00,
2013-03-04 07:55:00,39.5,29.1,29.94,East,84,10.0,15.0,66,0.00,,---,0.00,VWS V14.01,2013-03-04 13:55:00,
2013-03-04 07:56:00,39.6,28.8,29.94,ESE,102,7.0,15.0,65,0.00,,---,0.00,VWS V14.01,2013-03-04 13:56:00,
2013-03-04 07:57:00,39.7,28.5,29.94,East,93,13.0,15.0,64,0.00,,---,0.00,VWS V14.01,2013-03-04 13:57:00,
2013-03-04 08:00:00,39.8,28.6,29.94,ESE,108,12.0,12.0,64,0.00,,---,0.00,VWS V14.01,2013-03-04 14:00:00,
2013-03-04 08:02:00,40.0,28.8,29.94,East,93,10.0,12.0,64,0.00,,---,0.00,VWS V14.01,2013-03-04 14:02:00,
2013-03-04 08:03:00,40.2,28.6,29.94,East,101,9.0,14.0,63,0.00,,---,0.00,VWS V14.01,2013-03-04 14:03:00,
2013-03-04 08:05:00,40.2,28.6,29.94,East,96,9.0,14.0,63,0.00,,---,0.00,VWS V14.01,2013-03-04 14:05:00,
2013-03-04 08:07:00,40.3,28.7,29.94,East,83,15.0,15.0,63,0.00,,---,0.00,VWS V14.01,2013-03-04 14:07:00,
2013-03-04 08:08:00,40.4,28.4,29.94,East,95,8.0,15.0,62,0.00,,---,0.00,VWS V14.01,2013-03-04 14:08:00,
2013-03-04 08:10:00,40.5,28.5,29.94,ENE,77,12.0,15.0,62,0.00,,---,0.00,VWS V14.01,2013-03-04 14:10:00,
2013-03-04 08:12:00,40.6,29.0,29.93,ESE,102,10.0,15.0,63,0.00,,---,0.00,VWS V14.01,2013-03-04 14:12:00,
2013-03-04 08:13:00,40.7,28.7,29.93,East,92,12.0,15.0,62,0.00,,---,0.00,VWS V14.01,2013-03-04 14:13:00,
2013-03-04 08:15:00,40.8,28.8,29.93,East,101,6.0,15.0,62,0.00,,---,0.00,VWS V14.01,2013-03-04 14:15:00,
2013-03-04 08:17:00,40.9,29.3,29.93,East,82,8.0,15.0,63,0.00,,---,0.00,VWS V14.01,2013-03-04 14:17:00,
2013-03-04 08:18:00,40.9,29.3,29.93,East,84,13.0,15.0,63,0.00,,---,0.00,VWS V14.01,2013-03-04 14:18:00,
2013-03-04 08:19:00,41.1,29.5,29.93,ESE,107,8.0,15.0,63,0.00,,---,0.00,VWS V14.01,2013-03-04 14:19:00,
2013-03-04 08:20:00,41.1,29.1,29.93,ENE,77,12.0,15.0,62,0.00,,---,0.00,VWS V14.01,2013-03-04 14:20:00,
2013-03-04 08:22:00,41.2,28.8,29.93,ESE,104,9.0,15.0,61,0.00,,---,0.00,VWS V14.01,2013-03-04 14:22:00,
2013-03-04 08:23:00,41.3,28.5,29.93,East,87,12.0,16.0,60,0.00,,---,0.00,VWS V14.01,2013-03-04 14:23:00,
2013-03-04 08:24:00,41.4,29.0,29.93,ESE,104,7.0,16.0,61,0.00,,---,0.00,VWS V14.01,2013-03-04 14:24:00,
2013-03-04 08:25:00,41.5,29.5,29.93,ESE,110,9.0,16.0,62,0.00,,---,0.00,VWS V14.01,2013-03-04 14:25:00,
2013-03-04 08:27:00,41.7,28.4,29.93,ESE,110,14.0,18.0,59,0.00,,---,0.00,VWS V14.01,2013-03-04 14:27:00,
2013-03-04 08:28:00,41.8,29.0,29.93,East,93,15.0,15.0,60,0.00,,---,0.00,VWS V14.01,2013-03-04 14:28:00,
2013-03-04 08:29:00,41.8,28.5,29.93,ESE,110,11.0,15.0,59,0.00,,---,0.00,VWS V14.01,2013-03-04 14:29:00,
2013-03-04 08:30:00,41.9,28.6,29.93,East,89,12.0,15.0,59,0.00,,---,0.00,VWS V14.01,2013-03-04 14:30:00,
2013-03-04 08:32:00,42.1,28.8,29.92,East,99,9.0,15.0,59,0.00,,---,0.00,VWS V14.01,2013-03-04 14:32:00,
2013-03-04 08:33:00,42.2,28.9,29.92,East,100,11.0,15.0,59,0.00,,---,0.00,VWS V14.01,2013-03-04 14:33:00,
2013-03-04 08:34:00,42.2,28.5,29.92,East,90,17.0,17.0,58,0.00,,---,0.00,VWS V14.01,2013-03-04 14:34:00,
2013-03-04 08:35:00,42.3,28.6,29.92,ESE,111,11.0,20.0,58,0.00,,---,0.00,VWS V14.01,2013-03-04 14:35:00,
2013-03-04 08:37:00,42.4,28.7,29.92,East,99,10.0,20.0,58,0.00,,---,0.00,VWS V14.01,2013-03-04 14:37:00,
2013-03-04 08:38:00,42.5,28.8,29.92,ESE,103,8.0,20.0,58,0.00,,---,0.00,VWS V14.01,2013-03-04 14:38:00,
2013-03-04 08:40:00,42.5,28.8,29.92,ESE,104,14.0,20.0,58,0.00,,---,0.00,VWS V14.01,2013-03-04 14:40:00,
2013-03-04 08:42:00,42.6,28.9,29.92,ESE,112,12.0,20.0,58,0.00,,---,0.00,VWS V14.01,2013-03-04 14:42:00,
2013-03-04 08:44:00,42.6,28.9,29.92,SE,124,11.0,20.0,58,0.00,,---,0.00,VWS V14.01,2013-03-04 14:44:00,
2013-03-04 08:45:00,42.6,28.9,29.92,ESE,118,13.0,21.0,58,0.00,,---,0.00,VWS V14.01,2013-03-04 14:45:00,
2013-03-04 08:46:00,42.6,28.9,29.92,East,98,13.0,21.0,58,0.00,,---,0.00,VWS V14.01,2013-03-04 14:46:00,
2013-03-04 08:47:00,42.6,29.3,29.92,SE,127,11.0,21.0,59,0.00,,---,0.00,VWS V14.01,2013-03-04 14:47:00,
2013-03-04 08:49:00,42.7,29.4,29.92,East,87,11.0,21.0,59,0.00,,---,0.00,VWS V14.01,2013-03-04 14:49:00,
2013-03-04 08:50:00,42.7,29.4,29.92,ESE,116,10.0,21.0,59,0.00,,---,0.00,VWS V14.01,2013-03-04 14:50:00,
2013-03-04 08:51:00,42.7,29.4,29.92,ESE,118,8.0,21.0,59,0.00,,---,0.00,VWS V14.01,2013-03-04 14:51:00,
2013-03-04 08:53:00,42.7,29.8,29.92,ESE,104,10.0,21.0,60,0.00,,---,0.00,VWS V14.01,2013-03-04 14:53:00,
2013-03-04 08:54:00,42.7,29.8,29.92,ESE,108,10.0,21.0,60,0.00,,---,0.00,VWS V14.01,2013-03-04 14:54:00,
2013-03-04 08:55:00,42.7,30.2,29.92,ESE,113,7.0,21.0,61,0.00,,---,0.00,VWS V14.01,2013-03-04 14:55:00,
2013-03-04 08:56:00,42.7,29.8,29.92,East,94,10.0,21.0,60,0.00,,---,0.00,VWS V14.01,2013-03-04 14:56:00,
2013-03-04 08:58:00,42.8,29.9,29.92,ESE,118,13.0,15.0,60,0.00,,---,0.00,VWS V14.01,2013-03-04 14:58:00,
2013-03-04 08:59:00,42.8,29.5,29.92,East,91,10.0,16.0,59,0.00,,---,0.00,VWS V14.01,2013-03-04 14:59:00,
2013-03-04 09:00:00,43.7,30.7,29.89,East,100,10.0,22.0,60,0.00,,---,0.00,VWS V14.01,2013-03-04 15:00:00,
2013-03-04 09:01:00,42.7,29.4,29.92,ESE,114,16.0,18.0,59,0.00,,---,0.00,VWS V14.01,2013-03-04 15:01:00,
2013-03-04 09:03:00,42.6,29.7,29.92,ESE,115,13.0,20.0,60,0.00,,---,0.00,VWS V14.01,2013-03-04 15:03:00,
2013-03-04 09:04:00,42.6,29.3,29.92,ESE,103,16.0,20.0,59,0.00,,---,0.00,VWS V14.01,2013-03-04 15:04:00,
2013-03-04 09:06:00,42.6,29.3,29.92,East,98,15.0,22.0,59,0.00,,---,0.00,VWS V14.01,2013-03-04 15:06:00,
2013-03-04 09:08:00,42.6,29.7,29.91,East,93,10.0,22.0,60,0.00,,---,0.00,VWS V14.01,2013-03-04 15:08:00,
2013-03-04 09:09:00,42.6,29.7,29.91,ESE,112,11.0,22.0,60,0.00,,---,0.00,VWS V14.01,2013-03-04 15:09:00,
2013-03-04 09:11:00,42.6,30.1,29.91,ESE,104,12.0,22.0,61,0.00,,---,0.00,VWS V14.01,2013-03-04 15:11:00,
2013-03-04 09:13:00,42.6,29.7,29.91,ENE,77,18.0,22.0,60,0.00,,---,0.00,VWS V14.01,2013-03-04 15:13:00,
2013-03-04 09:14:00,42.6,29.7,29.91,East,100,13.0,22.0,60,0.00,,---,0.00,VWS V14.01,2013-03-04 15:14:00,
2013-03-04 09:16:00,42.6,30.1,29.91,ESE,120,9.0,22.0,61,0.00,,---,0.00,VWS V14.01,2013-03-04 15:16:00,
2013-03-04 09:17:00,42.7,30.2,29.91,East,87,13.0,22.0,61,0.00,,---,0.00,VWS V14.01,2013-03-04 15:17:00,
2013-03-04 09:18:00,42.7,30.6,29.91,East,101,16.0,22.0,62,0.00,,---,0.00,VWS V14.01,2013-03-04 15:18:00,
2013-03-04 09:19:00,42.7,30.2,29.91,East,93,12.0,22.0,61,0.00,,---,0.00,VWS V14.01,2013-03-04 15:19:00,
2013-03-04 09:21:00,42.7,29.8,29.91,ESE,112,9.0,23.0,60,0.00,,---,0.00,VWS V14.01,2013-03-04 15:21:00,
2013-03-04 09:22:00,42.7,29.8,29.91,ESE,105,9.0,23.0,60,0.00,,---,0.00,VWS V14.01,2013-03-04 15:22:00,
2013-03-04 09:23:00,42.7,30.2,29.91,SE,135,12.0,23.0,61,0.00,,---,0.00,VWS V14.01,2013-03-04 15:23:00,
2013-03-04 09:24:00,42.7,30.6,29.91,East,100,10.0,23.0,62,0.00,,---,0.00,VWS V14.01,2013-03-04 15:24:00,
2013-03-04 09:26:00,42.8,30.7,29.90,ENE,75,12.0,23.0,62,0.00,,---,0.00,VWS V14.01,2013-03-04 15:26:00,
2013-03-04 09:27:00,42.9,30.4,29.90,SE,125,13.0,23.0,61,0.00,,---,0.00,VWS V14.01,2013-03-04 15:27:00,
2013-03-04 09:28:00,42.9,30.4,29.90,East,95,11.0,15.0,61,0.00,,---,0.00,VWS V14.01,2013-03-04 15:28:00,
2013-03-04 09:29:00,43.0,30.9,29.90,East,100,11.0,16.0,62,0.00,,---,0.00,VWS V14.01,2013-03-04 15:29:00,
2013-03-04 09:30:00,45.2,33.0,29.88,ESE,113,8.0,22.0,62,0.00,,---,0.00,VWS V14.01,2013-03-04 15:30:00,
2013-03-04 09:31:00,43.1,31.0,29.91,ESE,110,14.0,16.0,62,0.00,,---,0.00,VWS V14.01,2013-03-04 15:31:00,
2013-03-04 09:32:00,43.1,30.6,29.91,ESE,123,11.0,16.0,61,0.00,,---,0.00,VWS V14.01,2013-03-04 15:32:00,
2013-03-04 09:34:00,43.2,30.7,29.90,ESE,102,11.0,16.0,61,0.00,,---,0.00,VWS V14.01,2013-03-04 15:34:00,
2013-03-04 09:36:00,43.4,30.5,29.90,East,93,16.0,17.0,60,0.00,,---,0.00,VWS V14.01,2013-03-04 15:36:00,
2013-03-04 09:38:00,43.4,30.5,29.90,East,90,15.0,18.0,60,0.00,,---,0.00,VWS V14.01,2013-03-04 15:38:00,
2013-03-04 09:39:00,43.4,30.5,29.90,ESE,115,18.0,18.0,60,0.00,,---,0.00,VWS V14.01,2013-03-04 15:39:00,
2013-03-04 09:42:00,43.5,30.5,29.90,East,87,15.0,20.0,60,0.00,,---,0.00,VWS V14.01,2013-03-04 15:42:00,
2013-03-04 09:43:00,43.5,30.1,29.90,SE,127,15.0,20.0,59,0.00,,---,0.00,VWS V14.01,2013-03-04 15:43:00,
2013-03-04 09:44:00,43.6,30.6,29.90,SE,126,11.0,20.0,60,0.00,,---,0.00,VWS V14.01,2013-03-04 15:44:00,
2013-03-04 09:46:00,43.7,30.7,29.90,ESE,120,15.0,21.0,60,0.00,,---,0.00,VWS V14.01,2013-03-04 15:46:00,
2013-03-04 09:48:00,43.7,30.3,29.90,ESE,110,18.0,22.0,59,0.00,,---,0.00,VWS V14.01,2013-03-04 15:48:00,
2013-03-04 09:49:00,43.7,30.3,29.90,ESE,118,18.0,22.0,59,0.00,,---,0.00,VWS V14.01,2013-03-04 15:49:00,
2013-03-04 09:52:00,43.6,29.8,29.90,SE,127,17.0,22.0,58,0.00,,---,0.00,VWS V14.01,2013-03-04 15:52:00,
2013-03-04 09:53:00,43.6,30.2,29.90,ESE,114,12.0,22.0,59,0.00,,---,0.00,VWS V14.01,2013-03-04 15:53:00,
2013-03-04 09:54:00,43.7,30.7,29.90,ESE,110,15.0,22.0,60,0.00,,---,0.00,VWS V14.01,2013-03-04 15:54:00,
2013-03-04 09:57:00,43.7,30.3,29.89,East,99,8.0,22.0,59,0.00,,---,0.00,VWS V14.01,2013-03-04 15:57:00,
2013-03-04 09:58:00,43.7,30.7,29.89,ESE,110,13.0,18.0,60,0.00,,---,0.00,VWS V14.01,2013-03-04 15:58:00,
2013-03-04 09:59:00,43.7,30.7,29.89,East,97,14.0,18.0,60,0.00,,---,0.00,VWS V14.01,2013-03-04 15:59:00,
2013-03-04 10:00:00,46.2,33.9,29.86,East,89,9.0,22.0,62,0.00,,---,0.00,VWS V14.01,2013-03-04 16:00:00,
2013-03-04 10:02:00,43.6,30.6,29.89,ESE,121,11.0,19.0,60,0.00,,---,0.00,VWS V14.01,2013-03-04 16:02:00,
2013-03-04 10:03:00,43.7,31.1,29.88,East,95,14.0,19.0,61,0.00,,---,0.00,VWS V14.01,2013-03-04 16:03:00,
2013-03-04 10:04:00,43.7,30.7,29.88,East,87,17.0,20.0,60,0.00,,---,0.00,VWS V14.01,2013-03-04 16:04:00,
2013-03-04 10:05:00,43.7,30.7,29.88,East,96,17.0,20.0,60,0.00,,---,0.00,VWS V14.01,2013-03-04 16:05:00,
2013-03-04 10:07:00,43.8,31.2,29.88,ESE,106,13.0,20.0,61,0.00,,---,0.00,VWS V14.01,2013-03-04 16:07:00,
2013-03-04 10:08:00,43.8,31.2,29.88,ESE,110,7.0,20.0,61,0.00,,---,0.00,VWS V14.01,2013-03-04 16:08:00,
2013-03-04 10:09:00,43.9,31.7,29.88,ESE,118,9.0,20.0,62,0.00,,---,0.00,VWS V14.01,2013-03-04 16:09:00,
2013-03-04 10:10:00,44.0,31.8,29.88,East,89,12.0,20.0,62,0.00,,---,0.00,VWS V14.01,2013-03-04 16:10:00,
2013-03-04 10:12:00,44.0,31.0,29.88,SE,129,17.0,21.0,60,0.00,,---,0.00,VWS V14.01,2013-03-04 16:12:00,
2013-03-04 10:13:00,44.0,31.0,29.88,East,96,13.0,22.0,60,0.00,,---,0.00,VWS V14.01,2013-03-04 16:13:00,
2013-03-04 10:14:00,44.0,31.4,29.88,ESE,105,15.0,22.0,61,0.00,,---,0.00,VWS V14.01,2013-03-04 16:14:00,
2013-03-04 10:15:00,44.1,31.5,29.88,East,100,10.0,22.0,61,0.00,,---,0.00,VWS V14.01,2013-03-04 16:15:00,
2013-03-04 10:17:00,44.2,31.6,29.88,ESE,102,16.0,22.0,61,0.00,,---,0.00,VWS V14.01,2013-03-04 16:17:00,
2013-03-04 10:18:00,44.3,31.7,29.88,ESE,112,12.0,22.0,61,0.00,,---,0.00,VWS V14.01,2013-03-04 16:18:00,
2013-03-04 10:19:00,44.4,31.8,29.88,East,101,14.0,22.0,61,0.00,,---,0.00,VWS V14.01,2013-03-04 16:19:00,
2013-03-04 10:20:00,44.4,31.8,29.88,ESE,104,14.0,22.0,61,0.00,,---,0.00,VWS V14.01,2013-03-04 16:20:00,
2013-03-04 10:22:00,44.7,32.5,29.88,ESE,104,18.0,22.0,62,0.00,,---,0.00,VWS V14.01,2013-03-04 16:22:00,
2013-03-04 10:24:00,44.9,31.9,29.88,East,101,15.0,22.0,60,0.00,,---,0.00,VWS V14.01,2013-03-04 16:24:00,
2013-03-04 10:25:00,44.9,31.9,29.88,ESE,102,12.0,22.0,60,0.00,,---,0.00,VWS V14.01,2013-03-04 16:25:00,
2013-03-04 10:27:00,45.2,33.0,29.88,SE,125,10.0,22.0,62,0.00,,---,0.00,VWS V14.01,2013-03-04 16:27:00,
2013-03-04 10:29:00,45.4,32.8,29.88,East,96,12.0,17.0,61,0.00,,---,0.00,VWS V14.01,2013-03-04 16:29:00,
2013-03-04 10:30:00,45.4,32.8,29.88,East,100,8.0,17.0,61,0.00,,---,0.00,VWS V14.01,2013-03-04 16:30:00,
2013-03-04 10:32:00,45.5,32.4,29.87,ESE,106,17.0,21.0,60,0.00,,---,0.00,VWS V14.01,2013-03-04 16:32:00,
2013-03-04 10:34:00,45.7,33.0,29.87,ESE,114,10.0,21.0,61,0.00,,---,0.00,VWS V14.01,2013-03-04 16:34:00,
2013-03-04 10:35:00,45.7,33.0,29.87,ESE,108,6.0,21.0,61,0.00,,---,0.00,VWS V14.01,2013-03-04 16:35:00,
2013-03-04 10:37:00,46.0,33.7,29.87,East,87,15.0,21.0,62,0.00,,---,0.00,VWS V14.01,2013-03-04 16:37:00,
2013-03-04 10:39:00,46.0,32.9,29.87,ESE,102,18.0,21.0,60,0.00,,---,0.00,VWS V14.01,2013-03-04 16:39:00,
2013-03-04 10:40:00,45.9,32.4,29.87,East,83,14.0,22.0,59,0.00,,---,0.00,VWS V14.01,2013-03-04 16:40:00,
2013-03-04 10:42:00,45.8,32.7,29.87,ESE,114,11.0,22.0,60,0.00,,---,0.00,VWS V14.01,2013-03-04 16:42:00,
2013-03-04 10:44:00,45.8,32.7,29.87,ESE,116,15.0,22.0,60,0.00,,---,0.00,VWS V14.01,2013-03-04 16:44:00,
2013-03-04 10:45:00,45.8,32.7,29.87,ESE,102,14.0,22.0,60,0.00,,---,0.00,VWS V14.01,2013-03-04 16:45:00,
2013-03-04 10:48:00,45.7,32.6,29.87,East,100,19.0,22.0,60,0.00,,---,0.00,VWS V14.01,2013-03-04 16:48:00,
2013-03-04 10:49:00,45.7,32.6,29.87,ESE,110,15.0,22.0,60,0.00,,---,0.00,VWS V14.01,2013-03-04 16:49:00,
2013-03-04 10:50:00,45.7,33.0,29.87,SE,125,15.0,22.0,61,0.00,,---,0.00,VWS V14.01,2013-03-04 16:50:00,
2013-03-04 10:53:00,45.8,33.1,29.86,East,92,8.0,22.0,61,0.00,,---,0.00,VWS V14.01,2013-03-04 16:53:00,
2013-03-04 10:54:00,46.0,34.1,29.86,East,83,11.0,22.0,63,0.00,,---,0.00,VWS V14.01,2013-03-04 16:54:00,
2013-03-04 10:55:00,46.0,33.7,29.86,ESE,107,8.0,22.0,62,0.00,,---,0.00,VWS V14.01,2013-03-04 16:55:00,
2013-03-04 10:58:00,46.3,34.0,29.86,East,84,9.0,9.0,62,0.00,,---,0.00,VWS V14.01,2013-03-04 16:58:00,
2013-03-04 11:00:00,46.4,34.1,29.86,East,88,11.0,12.0,62,0.00,,---,0.00,VWS V14.01,2013-03-04 17:00:00,
2013-03-04 11:03:00,46.6,34.7,29.86,East,89,12.0,14.0,63,0.00,,---,0.00,VWS V14.01,2013-03-04 17:03:00,
2013-03-04 11:05:00,46.6,34.7,29.86,ESE,102,12.0,14.0,63,0.00,,---,0.00,VWS V14.01,2013-03-04 17:05:00,
2013-03-04 11:08:00,46.7,34.4,29.85,East,88,9.0,14.0,62,0.00,,---,0.00,VWS V14.01,2013-03-04 17:08:00,
2013-03-04 11:10:00,46.9,35.0,29.85,East,100,7.0,14.0,63,0.00,,---,0.00,VWS V14.01,2013-03-04 17:10:00,
2013-03-04 11:11:00,46.9,35.0,29.85,East,87,10.0,14.0,63,0.00,,---,0.00,VWS V14.01,2013-03-04 17:11:00,
2013-03-04 11:13:00,47.2,35.3,29.85,East,93,13.0,14.0,63,0.00,,---,0.00,VWS V14.01,2013-03-04 17:13:00,
2013-03-04 11:15:00,47.5,35.5,29.84,SE,133,9.0,17.0,63,0.00,,---,0.00,VWS V14.01,2013-03-04 17:15:00,
2013-03-04 11:16:00,47.5,35.1,29.84,ESE,123,16.0,17.0,62,0.00,,---,0.00,VWS V14.01,2013-03-04 17:16:00,
2013-03-04 11:18:00,47.9,34.7,29.84,ESE,113,13.0,18.0,60,0.00,,---,0.00,VWS V14.01,2013-03-04 17:18:00,
2013-03-04 11:20:00,48.2,35.4,29.84,ESE,104,11.0,18.0,61,0.00,,---,0.00,VWS V14.01,2013-03-04 17:20:00,
2013-03-04 11:21:00,48.2,35.4,29.84,East,101,13.0,18.0,61,0.00,,---,0.00,VWS V14.01,2013-03-04 17:21:00,
2013-03-04 11:23:00,48.3,35.1,29.84,East,98,14.0,21.0,60,0.00,,---,0.00,VWS V14.01,2013-03-04 17:23:00,
2013-03-04 11:25:00,48.4,35.2,29.83,East,87,13.0,21.0,60,0.00,,---,0.00,VWS V14.01,2013-03-04 17:25:00,
2013-03-04 11:26:00,48.4,35.6,29.83,ESE,104,12.0,21.0,61,0.00,,---,0.00,VWS V14.01,2013-03-04 17:26:00,
2013-03-04 11:28:00,48.6,35.8,29.83,East,90,14.0,22.0,61,0.00,,---,0.00,VWS V14.01,2013-03-04 17:28:00,
2013-03-04 11:30:00,50.0,36.2,29.81,SSE,161,7.0,21.0,59,0.00,,---,0.00,VWS V14.01,2013-03-04 17:30:00,
2013-03-04 11:31:00,48.8,36.0,29.83,ESE,102,10.0,22.0,61,0.00,,---,0.00,VWS V14.01,2013-03-04 17:31:00,
2013-03-04 11:33:00,48.9,35.6,29.83,ESE,112,11.0,22.0,60,0.00,,---,0.00,VWS V14.01,2013-03-04 17:33:00,
2013-03-04 11:36:00,49.0,35.7,29.83,SE,125,9.0,22.0,60,0.00,,---,0.00,VWS V14.01,2013-03-04 17:36:00,
2013-03-04 11:38:00,49.1,36.2,29.83,ESE,110,19.0,22.0,61,0.00,,---,0.00,VWS V14.01,2013-03-04 17:38:00,
2013-03-04 11:41:00,49.2,36.3,29.83,ESE,119,7.0,22.0,61,0.00,,---,0.00,VWS V14.01,2013-03-04 17:41:00,
2013-03-04 11:43:00,49.3,36.0,29.83,ESE,110,9.0,22.0,60,0.00,,---,0.00,VWS V14.01,2013-03-04 17:43:00,
2013-03-04 11:46:00,49.4,36.1,29.83,SSE,156,12.0,22.0,60,0.00,,---,0.00,VWS V14.01,2013-03-04 17:46:00,
2013-03-04 11:47:00,49.4,36.1,29.83,SE,141,10.0,22.0,60,0.00,,---,0.00,VWS V14.01,2013-03-04 17:47:00,
2013-03-04 11:48:00,49.4,36.5,29.84,SSE,164,9.0,22.0,61,0.00,,---,0.00,VWS V14.01,2013-03-04 17:48:00,
2013-03-04 11:52:00,49.5,37.0,29.83,SE,141,13.0,22.0,62,0.00,,---,0.00,VWS V14.01,2013-03-04 17:52:00,
2013-03-04 11:54:00,49.6,35.9,29.83,SE,135,16.0,22.0,59,0.00,,---,0.00,VWS V14.01,2013-03-04 17:54:00,
2013-03-04 11:57:00,49.6,35.9,29.82,SE,142,17.0,22.0,59,0.00,,---,0.00,VWS V14.01,2013-03-04 17:57:00,
2013-03-04 11:59:00,49.6,35.9,29.83,ESE,103,15.0,17.0,59,0.00,,---,0.00,VWS V14.01,2013-03-04 17:59:00,
2013-03-04 12:00:00,49.9,37.4,29.79,ESE,105,5.0,17.0,62,0.00,,---,0.00,VWS V14.01,2013-03-04 18:00:00,
2013-03-04 12:02:00,49.7,36.0,29.82,ESE,120,13.0,17.0,59,0.00,,---,0.00,VWS V14.01,2013-03-04 18:02:00,
2013-03-04 12:04:00,49.8,36.1,29.82,ESE,112,11.0,17.0,59,0.00,,---,0.00,VWS V14.01,2013-03-04 18:04:00,
2013-03-04 12:07:00,49.8,36.1,29.82,SE,127,9.0,21.0,59,0.00,,---,0.00,VWS V14.01,2013-03-04 18:07:00,
2013-03-04 12:10:00,49.8,36.1,29.82,ESE,110,12.0,21.0,59,0.00,,---,0.00,VWS V14.01,2013-03-04 18:10:00,
2013-03-04 12:12:00,49.9,36.2,29.82,SE,136,7.0,21.0,59,0.00,,---,0.00,VWS V14.01,2013-03-04 18:12:00,
2013-03-04 12:15:00,50.0,36.2,29.82,SSE,147,10.0,21.0,59,0.00,,---,0.00,VWS V14.01,2013-03-04 18:15:00,
2013-03-04 12:17:00,49.9,36.2,29.81,ESE,120,11.0,21.0,59,0.00,,---,0.00,VWS V14.01,2013-03-04 18:17:00,
2013-03-04 12:20:00,50.0,36.7,29.81,ESE,113,5.0,21.0,60,0.00,,---,0.00,VWS V14.01,2013-03-04 18:20:00,
2013-03-04 12:22:00,50.0,36.2,29.81,ESE,111,19.0,21.0,59,0.00,,---,0.00,VWS V14.01,2013-03-04 18:22:00,
2013-03-04 12:25:00,50.0,36.2,29.81,ESE,123,15.0,21.0,59,0.00,,---,0.00,VWS V14.01,2013-03-04 18:25:00,
2013-03-04 12:27:00,50.0,36.2,29.81,SE,130,9.0,21.0,59,0.00,,---,0.00,VWS V14.01,2013-03-04 18:27:00,
2013-03-04 12:28:00,50.0,36.2,29.81,SSE,148,11.0,13.0,59,0.00,,---,0.00,VWS V14.01,2013-03-04 18:28:00,
2013-03-04 12:29:00,50.0,36.2,29.81,ESE,117,14.0,17.0,59,0.00,,---,0.00,VWS V14.01,2013-03-04 18:29:00,
2013-03-04 12:30:00,50.3,38.2,29.77,SE,134,4.0,16.0,63,0.00,,---,0.00,VWS V14.01,2013-03-04 18:30:00,
2013-03-04 12:34:00,49.8,36.5,29.81,SE,131,11.0,17.0,60,0.00,,---,0.00,VWS V14.01,2013-03-04 18:34:00,
2013-03-04 12:39:00,49.8,36.5,29.80,ESE,118,8.0,17.0,60,0.00,,---,0.00,VWS V14.01,2013-03-04 18:39:00,
2013-03-04 12:40:00,49.8,36.5,29.80,SSE,156,7.0,17.0,60,0.00,,---,0.00,VWS V14.01,2013-03-04 18:40:00,
2013-03-04 12:44:00,49.9,36.6,29.80,ESE,115,15.0,17.0,60,0.00,,---,0.00,VWS V14.01,2013-03-04 18:44:00,
2013-03-04 12:45:00,49.8,36.5,29.80,SE,136,9.0,17.0,60,0.00,,---,0.00,VWS V14.01,2013-03-04 18:45:00,
2013-03-04 12:49:00,49.9,37.0,29.79,SSE,162,6.0,17.0,61,0.00,,---,0.00,VWS V14.01,2013-03-04 18:49:00,
2013-03-04 12:50:00,49.8,36.5,29.79,SE,125,7.0,17.0,60,0.00,,---,0.00,VWS V14.01,2013-03-04 18:50:00,
2013-03-04 12:54:00,49.8,36.9,29.79,SE,125,6.0,17.0,61,0.00,,---,0.00,VWS V14.01,2013-03-04 18:54:00,
2013-03-04 12:55:00,49.8,36.9,29.79,ESE,114,4.0,17.0,61,0.00,,---,0.00,VWS V14.01,2013-03-04 18:55:00,
2013-03-04 12:59:00,49.9,37.4,29.79,SE,133,6.0,11.0,62,0.00,,---,0.00,VWS V14.01,2013-03-04 18:59:00,
2013-03-04 13:00:00,49.9,37.4,29.79,SE,137,8.0,11.0,62,0.00,,---,0.00,VWS V14.01,2013-03-04 19:00:00,
2013-03-04 13:05:00,50.0,37.5,29.79,SE,131,9.0,16.0,62,0.00,,---,0.00,VWS V14.01,2013-03-04 19:05:00,
2013-03-04 13:10:00,50.0,37.9,29.79,ESE,112,6.0,16.0,63,0.00,,---,0.00,VWS V14.01,2013-03-04 19:10:00,
2013-03-04 13:15:00,50.0,37.5,29.78,SE,142,5.0,16.0,62,0.00,,---,0.00,VWS V14.01,2013-03-04 19:15:00,
2013-03-04 13:20:00,50.1,37.6,29.78,SE,127,8.0,16.0,62,0.00,,---,0.00,VWS V14.01,2013-03-04 19:20:00,
2013-03-04 13:21:00,50.2,37.7,29.78,SE,136,10.0,16.0,62,0.00,,---,0.00,VWS V14.01,2013-03-04 19:21:00,
2013-03-04 13:25:00,50.2,37.7,29.78,SE,127,7.0,16.0,62,0.00,,---,0.00,VWS V14.01,2013-03-04 19:25:00,
2013-03-04 13:26:00,50.2,37.7,29.78,SSE,162,4.0,16.0,62,0.00,,---,0.00,VWS V14.01,2013-03-04 19:26:00,
2013-03-04 13:30:00,50.3,37.8,29.77,SSE,156,13.0,13.0,62,0.00,,---,0.00,VWS V14.01,2013-03-04 19:30:00,
2013-03-04 13:31:00,50.3,37.8,29.77,SE,125,5.0,13.0,62,0.00,,---,0.00,VWS V14.01,2013-03-04 19:31:00,
2013-03-04 13:35:00,50.4,37.9,29.77,East,100,5.0,13.0,62,0.00,,---,0.00,VWS V14.01,2013-03-04 19:35:00,
2013-03-04 13:36:00,50.4,37.9,29.77,ESE,114,6.0,13.0,62,0.00,,---,0.00,VWS V14.01,2013-03-04 19:36:00,
2013-03-04 13:41:00,50.4,37.9,29.77,ESE,105,4.0,13.0,62,0.00,,---,0.00,VWS V14.01,2013-03-04 19:41:00,
2013-03-04 13:46:00,50.5,38.0,29.76,SSE,160,6.0,16.0,62,0.00,,---,0.00,VWS V14.01,2013-03-04 19:46:00,
2013-03-04 13:51:00,50.7,37.8,29.76,SE,138,4.0,16.0,61,0.00,,---,0.00,VWS V14.01,2013-03-04 19:51:00,
2013-03-04 13:52:00,50.7,37.8,29.76,SE,126,3.0,16.0,61,0.00,,---,0.00,VWS V14.01,2013-03-04 19:52:00,
2013-03-04 13:56:00,50.8,38.3,29.76,ESE,113,5.0,16.0,62,0.00,,---,0.00,VWS V14.01,2013-03-04 19:56:00,
2013-03-04 13:57:00,50.8,38.3,29.76,ESE,118,7.0,16.0,62,0.00,,---,0.00,VWS V14.01,2013-03-04 19:57:00,
2013-03-04 14:00:00,51.7,39.5,29.76,East,79,4.0,11.0,63,0.00,,---,0.00,VWS V14.01,2013-03-04 20:00:00,
2013-03-04 14:01:00,51.0,38.0,29.76,SE,129,6.0,10.0,61,0.00,,---,0.00,VWS V14.01,2013-03-04 20:01:00,
2013-03-04 14:02:00,51.1,38.1,29.76,ESE,108,4.0,10.0,61,0.00,,---,0.00,VWS V14.01,2013-03-04 20:02:00,
2013-03-04 14:06:00,51.2,38.2,29.76,SE,133,4.0,10.0,61,0.00,,---,0.00,VWS V14.01,2013-03-04 20:06:00,
2013-03-04 14:07:00,51.2,38.6,29.76,SSE,150,6.0,10.0,62,0.00,,---,0.00,VWS V14.01,2013-03-04 20:07:00,
2013-03-04 14:11:00,51.3,38.3,29.76,ESE,123,5.0,10.0,61,0.00,,---,0.00,VWS V14.01,2013-03-04 20:11:00,
2013-03-04 14:12:00,51.3,38.7,29.76,ESE,109,8.0,10.0,62,0.00,,---,0.00,VWS V14.01,2013-03-04 20:12:00,
2013-03-04 14:16:00,51.4,38.4,29.76,East,96,5.0,10.0,61,0.00,,---,0.00,VWS V14.01,2013-03-04 20:16:00,
2013-03-04 14:17:00,51.4,38.8,29.76,East,96,4.0,10.0,62,0.00,,---,0.00,VWS V14.01,2013-03-04 20:17:00,
2013-03-04 14:22:00,51.4,38.4,29.76,SE,125,7.0,10.0,61,0.00,,---,0.00,VWS V14.01,2013-03-04 20:22:00,
2013-03-04 14:27:00,51.4,38.8,29.77,SE,127,8.0,10.0,62,0.00,,---,0.00,VWS V14.01,2013-03-04 20:27:00,
2013-03-04 14:30:00,52.1,40.3,29.75,SE,136,2.0,9.0,64,0.00,,---,0.00,VWS V14.01,2013-03-04 20:30:00,
2013-03-04 14:32:00,51.5,38.9,29.76,SE,144,2.0,11.0,62,0.00,,---,0.00,VWS V14.01,2013-03-04 20:32:00,
2013-03-04 14:37:00,51.6,39.4,29.76,ESE,119,2.0,11.0,63,0.00,,---,0.00,VWS V14.01,2013-03-04 20:37:00,
2013-03-04 14:42:00,51.7,39.5,29.76,ESE,109,6.0,11.0,63,0.00,,---,0.00,VWS V14.01,2013-03-04 20:42:00,
2013-03-04 14:43:00,51.7,39.5,29.76,East,93,4.0,11.0,63,0.00,,---,0.00,VWS V14.01,2013-03-04 20:43:00,
2013-03-04 14:47:00,51.7,39.5,29.76,East,96,3.0,11.0,63,0.00,,---,0.00,VWS V14.01,2013-03-04 20:47:00,
2013-03-04 14:48:00,51.7,39.5,29.76,ESE,112,4.0,11.0,63,0.00,,---,0.00,VWS V14.01,2013-03-04 20:48:00,
2013-03-04 14:52:00,51.7,39.5,29.76,East,91,3.0,11.0,63,0.00,,---,0.00,VWS V14.01,2013-03-04 20:52:00,
2013-03-04 14:53:00,51.7,39.9,29.76,East,101,3.0,11.0,64,0.00,,---,0.00,VWS V14.01,2013-03-04 20:53:00,
2013-03-04 14:57:00,51.7,39.5,29.76,ESE,107,3.0,11.0,63,0.00,,---,0.00,VWS V14.01,2013-03-04 20:57:00,
2013-03-04 14:58:00,51.8,40.0,29.76,East,89,9.0,9.0,64,0.00,,---,0.00,VWS V14.01,2013-03-04 20:58:00,
2013-03-04 15:00:00,52.2,40.4,29.74,East,91,2.0,7.0,64,0.00,,---,0.00,VWS V14.01,2013-03-04 21:00:00,
2013-03-04 15:02:00,51.7,39.5,29.76,East,100,4.0,9.0,63,0.00,,---,0.00,VWS V14.01,2013-03-04 21:02:00,
2013-03-04 15:03:00,51.8,40.0,29.76,ESE,117,3.0,9.0,64,0.00,,---,0.00,VWS V14.01,2013-03-04 21:03:00,
2013-03-04 15:07:00,51.7,39.9,29.76,East,91,3.0,9.0,64,0.00,,---,0.00,VWS V14.01,2013-03-04 21:07:00,
2013-03-04 15:08:00,51.7,39.9,29.76,ENE,64,3.0,9.0,64,0.00,,---,0.00,VWS V14.01,2013-03-04 21:08:00,
2013-03-04 15:12:00,51.7,39.9,29.75,ESE,123,1.0,9.0,64,0.00,,---,0.00,VWS V14.01,2013-03-04 21:12:00,
2013-03-04 15:13:00,51.7,39.9,29.75,ESE,123,2.0,9.0,64,0.00,,---,0.00,VWS V14.01,2013-03-04 21:13:00,
2013-03-04 15:14:00,51.7,39.9,29.75,ESE,123,3.0,9.0,64,0.00,,---,0.00,VWS V14.01,2013-03-04 21:14:00,
2013-03-04 15:17:00,51.8,40.0,29.75,ESE,108,3.0,9.0,64,0.00,,---,0.00,VWS V14.01,2013-03-04 21:17:00,
2013-03-04 15:18:00,51.9,40.1,29.75,ESE,108,3.0,9.0,64,0.00,,---,0.00,VWS V14.01,2013-03-04 21:18:00,
2013-03-04 15:19:00,51.9,40.1,29.75,SE,136,3.0,9.0,64,0.00,,---,0.00,VWS V14.01,2013-03-04 21:19:00,
2013-03-04 15:22:00,52.0,39.8,29.75,SE,136,2.0,9.0,63,0.00,,---,0.00,VWS V14.01,2013-03-04 21:22:00,
2013-03-04 15:23:00,52.0,40.2,29.75,SE,136,1.0,9.0,64,0.00,,---,0.00,VWS V14.01,2013-03-04 21:23:00,
2013-03-04 15:24:00,52.0,40.2,29.75,SE,136,2.0,9.0,64,0.00,,---,0.00,VWS V14.01,2013-03-04 21:24:00,
2013-03-04 15:27:00,52.1,40.3,29.75,SE,136,2.0,2.0,64,0.00,,---,0.00,VWS V14.01,2013-03-04 21:27:00,
2013-03-04 15:28:00,52.1,40.3,29.75,SE,136,4.0,4.0,64,0.00,,---,0.00,VWS V14.01,2013-03-04 21:28:00,
2013-03-04 15:29:00,52.1,39.9,29.75,SE,136,3.0,4.0,63,0.00,,---,0.00,VWS V14.01,2013-03-04 21:29:00,
2013-03-04 15:30:00,52.1,40.3,29.75,SE,136,2.0,4.0,64,0.00,,---,0.00,VWS V14.01,2013-03-04 21:30:00,
2013-03-04 15:33:00,52.2,40.0,29.75,SE,136,2.0,4.0,63,0.00,,---,0.00,VWS V14.01,2013-03-04 21:33:00,
2013-03-04 15:34:00,52.1,39.9,29.75,SE,136,2.0,4.0,63,0.00,,---,0.00,VWS V14.01,2013-03-04 21:34:00,
2013-03-04 15:35:00,52.2,40.0,29.74,SE,136,1.0,4.0,63,0.00,,---,0.00,VWS V14.01,2013-03-04 21:35:00,
2013-03-04 15:38:00,52.1,40.3,29.74,SE,136,2.0,4.0,64,0.00,,---,0.00,VWS V14.01,2013-03-04 21:38:00,
2013-03-04 15:39:00,52.1,40.3,29.74,SE,136,3.0,4.0,64,0.00,,---,0.00,VWS V14.01,2013-03-04 21:39:00,
2013-03-04 15:40:00,52.1,40.3,29.74,SE,136,2.0,4.0,64,0.00,,---,0.00,VWS V14.01,2013-03-04 21:40:00,
2013-03-04 15:43:00,52.1,40.3,29.74,SE,136,3.0,4.0,64,0.00,,---,0.00,VWS V14.01,2013-03-04 21:43:00,
2013-03-04 15:44:00,52.1,40.3,29.74,SE,136,3.0,4.0,64,0.00,,---,0.00,VWS V14.01,2013-03-04 21:44:00,
2013-03-04 15:45:00,52.0,40.6,29.74,SE,136,2.0,4.0,65,0.00,,---,0.00,VWS V14.01,2013-03-04 21:45:00,
2013-03-04 15:48:00,52.1,40.3,29.74,SE,136,3.0,4.0,64,0.00,,---,0.00,VWS V14.01,2013-03-04 21:48:00,
2013-03-04 15:49:00,52.1,39.9,29.74,East,91,3.0,7.0,63,0.00,,---,0.00,VWS V14.01,2013-03-04 21:49:00,
2013-03-04 15:50:00,52.1,39.9,29.74,East,91,2.0,7.0,63,0.00,,---,0.00,VWS V14.01,2013-03-04 21:50:00,
2013-03-04 15:53:00,52.2,40.0,29.74,East,91,2.0,7.0,63,0.00,,---,0.00,VWS V14.01,2013-03-04 21:53:00,
2013-03-04 15:54:00,52.2,40.0,29.74,East,91,1.0,7.0,63,0.00,,---,0.00,VWS V14.01,2013-03-04 21:54:00,
2013-03-04 15:55:00,52.2,40.4,29.74,East,91,0.0,7.0,64,0.00,,---,0.00,VWS V14.01,2013-03-04 21:55:00,
2013-03-04 15:58:00,52.2,40.0,29.74,East,91,3.0,4.0,63,0.00,,---,0.00,VWS V14.01,2013-03-04 21:58:00,
2013-03-04 15:59:00,52.3,40.1,29.74,East,91,0.0,4.0,63,0.00,,---,0.00,VWS V14.01,2013-03-04 21:59:00,
2013-03-04 16:00:00,52.3,40.1,29.74,East,91,0.0,4.0,63,0.00,,---,0.00,VWS V14.01,2013-03-04 22:00:00,
2013-03-04 16:03:00,52.3,40.5,29.74,East,91,1.0,4.0,64,0.00,,---,0.00,VWS V14.01,2013-03-04 22:03:00,
2013-03-04 16:04:00,52.3,40.5,29.74,East,93,2.0,4.0,64,0.00,,---,0.00,VWS V14.01,2013-03-04 22:04:00,
2013-03-04 16:06:00,52.3,40.5,29.74,ENE,66,2.0,4.0,64,0.00,,---,0.00,VWS V14.01,2013-03-04 22:06:00,
2013-03-04 16:08:00,52.4,40.2,29.74,East,100,3.0,5.0,63,0.00,,---,0.00,VWS V14.01,2013-03-04 22:08:00,
2013-03-04 16:09:00,52.4,40.2,29.74,East,100,2.0,5.0,63,0.00,,---,0.00,VWS V14.01,2013-03-04 22:09:00,
2013-03-04 16:11:00,52.6,40.4,29.74,East,100,4.0,5.0,63,0.00,,---,0.00,VWS V14.01,2013-03-04 22:11:00,
2013-03-04 16:13:00,52.7,40.5,29.74,ESE,123,3.0,5.0,63,0.00,,---,0.00,VWS V14.01,2013-03-04 22:13:00,
2013-03-04 16:14:00,52.7,40.5,29.74,ESE,123,4.0,5.0,63,0.00,,---,0.00,VWS V14.01,2013-03-04 22:14:00,
2013-03-04 16:15:00,52.7,40.5,29.74,ESE,122,3.0,5.0,63,0.00,,---,0.00,VWS V14.01,2013-03-04 22:15:00,
2013-03-04 16:16:00,52.7,40.5,29.74,East,97,3.0,5.0,63,0.00,,---,0.00,VWS V14.01,2013-03-04 22:16:00,
2013-03-04 16:18:00,52.7,40.5,29.74,SE,140,3.0,5.0,63,0.00,,---,0.00,VWS V14.01,2013-03-04 22:18:00,
2013-03-04 16:19:00,52.8,40.6,29.74,SE,138,2.0,5.0,63,0.00,,---,0.00,VWS V14.01,2013-03-04 22:19:00,
2013-03-04 16:20:00,52.8,41.0,29.74,SE,137,3.0,5.0,64,0.00,,---,0.00,VWS V14.01,2013-03-04 22:20:00,
2013-03-04 16:21:00,52.8,40.6,29.74,ESE,118,3.0,5.0,63,0.00,,---,0.00,VWS V14.01,2013-03-04 22:21:00,
2013-03-04 16:24:00,52.8,40.6,29.74,ESE,104,4.0,5.0,63,0.00,,---,0.00,VWS V14.01,2013-03-04 22:24:00,
2013-03-04 16:25:00,52.8,40.6,29.74,ESE,106,2.0,5.0,63,0.00,,---,0.00,VWS V14.01,2013-03-04 22:25:00,
2013-03-04 16:26:00,52.9,40.7,29.74,ESE,106,3.0,5.0,63,0.00,,---,0.00,VWS V14.01,2013-03-04 22:26:00,
2013-03-04 16:29:00,52.9,40.7,29.74,ESE,106,2.0,4.0,63,0.00,,---,0.00,VWS V14.01,2013-03-04 22:29:00,
2013-03-04 16:30:00,52.9,41.1,29.74,ESE,106,4.0,4.0,64,0.00,,---,0.00,VWS V14.01,2013-03-04 22:30:00,
2013-03-04 16:32:00,52.9,40.7,29.74,ESE,106,3.0,4.0,63,0.00,,---,0.00,VWS V14.01,2013-03-04 22:32:00,
2013-03-04 16:34:00,52.9,41.1,29.74,ESE,106,1.0,4.0,64,0.00,,---,0.00,VWS V14.01,2013-03-04 22:34:00,
2013-03-04 16:35:00,52.9,40.7,29.74,ESE,106,2.0,4.0,63,0.00,,---,0.00,VWS V14.01,2013-03-04 22:35:00,
2013-03-04 16:37:00,52.9,40.7,29.74,ESE,106,3.0,4.0,63,0.00,,---,0.00,VWS V14.01,2013-03-04 22:37:00,
2013-03-04 16:39:00,53.0,40.8,29.74,ESE,112,2.0,4.0,63,0.00,,---,0.00,VWS V14.01,2013-03-04 22:39:00,
2013-03-04 16:40:00,53.0,40.8,29.74,ESE,112,2.0,4.0,63,0.00,,---,0.00,VWS V14.01,2013-03-04 22:40:00,
2013-03-04 16:42:00,53.0,40.8,29.74,ESE,112,2.0,4.0,63,0.00,,---,0.00,VWS V14.01,2013-03-04 22:42:00,
2013-03-04 16:44:00,53.0,41.2,29.74,ESE,112,1.0,4.0,64,0.00,,---,0.00,VWS V14.01,2013-03-04 22:44:00,
2013-03-04 16:45:00,53.0,40.8,29.74,ESE,112,1.0,4.0,63,0.00,,---,0.00,VWS V14.01,2013-03-04 22:45:00,
2013-03-04 16:47:00,52.9,41.1,29.74,ESE,112,2.0,4.0,64,0.00,,---,0.00,VWS V14.01,2013-03-04 22:47:00,
2013-03-04 16:49:00,52.9,40.7,29.74,ESE,112,2.0,4.0,63,0.00,,---,0.00,VWS V14.01,2013-03-04 22:49:00,
2013-03-04 16:50:00,53.0,40.3,29.74,ESE,112,2.0,4.0,62,0.00,,---,0.00,VWS V14.01,2013-03-04 22:50:00,
2013-03-04 16:52:00,53.1,40.4,29.74,ESE,112,0.0,4.0,62,0.00,,---,0.00,VWS V14.01,2013-03-04 22:52:00,
2013-03-04 16:54:00,53.2,40.5,29.75,ESE,112,1.0,4.0,62,0.00,,---,0.00,VWS V14.01,2013-03-04 22:54:00,
2013-03-04 16:55:00,53.2,40.5,29.75,ESE,112,1.0,4.0,62,0.00,,---,0.00,VWS V14.01,2013-03-04 22:55:00,
2013-03-04 16:57:00,53.2,40.5,29.75,ESE,112,2.0,4.0,62,0.00,,---,0.00,VWS V14.01,2013-03-04 22:57:00,
2013-03-04 16:59:00,53.2,40.5,29.75,ESE,112,1.0,2.0,62,0.00,,---,0.00,VWS V14.01,2013-03-04 22:59:00,
2013-03-04 17:00:00,53.2,40.1,29.74,ESE,112,2.0,2.0,61,0.00,,---,0.00,VWS V14.01,2013-03-04 23:00:00,
2013-03-04 17:02:00,53.2,40.5,29.75,ESE,112,2.0,3.0,62,0.00,,---,0.00,VWS V14.01,2013-03-04 23:02:00,
2013-03-04 17:04:00,53.2,40.5,29.75,ESE,112,1.0,3.0,62,0.00,,---,0.00,VWS V14.01,2013-03-04 23:04:00,
2013-03-04 17:05:00,53.1,40.4,29.75,ESE,112,2.0,3.0,62,0.00,,---,0.00,VWS V14.01,2013-03-04 23:05:00,
2013-03-04 17:06:00,53.1,40.4,29.74,ESE,112,1.0,3.0,62,0.00,,---,0.00,VWS V14.01,2013-03-04 23:06:00,
2013-03-04 17:07:00,53.1,40.4,29.74,ESE,112,0.0,3.0,62,0.00,,---,0.00,VWS V14.01,2013-03-04 23:07:00,
2013-03-04 17:09:00,53.0,40.3,29.75,ESE,112,1.0,3.0,62,0.00,,---,0.00,VWS V14.01,2013-03-04 23:09:00,
2013-03-04 17:10:00,53.0,40.3,29.75,ESE,112,1.0,3.0,62,0.00,,---,0.00,VWS V14.01,2013-03-04 23:10:00,
2013-03-04 17:11:00,53.0,40.3,29.75,ESE,112,1.0,3.0,62,0.00,,---,0.00,VWS V14.01,2013-03-04 23:11:00,
2013-03-04 17:12:00,53.0,40.3,29.75,ESE,112,2.0,3.0,62,0.00,,---,0.00,VWS V14.01,2013-03-04 23:12:00,
2013-03-04 17:14:00,52.9,40.2,29.75,ESE,112,1.0,3.0,62,0.00,,---,0.00,VWS V14.01,2013-03-04 23:14:00,
2013-03-04 17:16:00,53.0,40.3,29.75,ESE,112,1.0,3.0,62,0.00,,---,0.00,VWS V14.01,2013-03-04 23:16:00,
2013-03-04 17:17:00,53.0,40.3,29.75,ESE,112,0.0,3.0,62,0.00,,---,0.00,VWS V14.01,2013-03-04 23:17:00,
2013-03-04 17:20:00,52.8,40.2,29.75,ESE,112,2.0,3.0,62,0.00,,---,0.00,VWS V14.01,2013-03-04 23:20:00,
2013-03-04 17:21:00,52.8,40.2,29.75,ESE,112,1.0,3.0,62,0.00,,---,0.00,VWS V14.01,2013-03-04 23:21:00,
2013-03-04 17:22:00,52.8,40.2,29.75,ESE,112,1.0,3.0,62,0.00,,---,0.00,VWS V14.01,2013-03-04 23:22:00,
2013-03-04 17:25:00,52.8,40.6,29.75,ESE,112,0.0,3.0,63,0.00,,---,0.00,VWS V14.01,2013-03-04 23:25:00,
2013-03-04 17:26:00,52.6,40.8,29.75,ESE,112,0.0,3.0,64,0.00,,---,0.00,VWS V14.01,2013-03-04 23:26:00,
2013-03-04 17:27:00,52.5,40.3,29.75,ESE,112,1.0,3.0,63,0.00,,---,0.00,VWS V14.01,2013-03-04 23:27:00,
2013-03-04 17:30:00,52.5,40.3,29.75,ESE,112,0.0,2.0,63,0.00,,---,0.00,VWS V14.01,2013-03-04 23:30:00,
2013-03-04 17:31:00,52.5,40.3,29.75,ESE,112,0.0,2.0,63,0.00,,---,0.00,VWS V14.01,2013-03-04 23:31:00,
2013-03-04 17:32:00,52.6,40.0,29.75,ESE,112,0.0,2.0,62,0.00,,---,0.00,VWS V14.01,2013-03-04 23:32:00,
2013-03-04 17:35:00,52.6,40.4,29.75,ESE,112,0.0,2.0,63,0.00,,---,0.00,VWS V14.01,2013-03-04 23:35:00,
2013-03-04 17:36:00,52.6,40.0,29.75,ESE,112,0.0,2.0,62,0.00,,---,0.00,VWS V14.01,2013-03-04 23:36:00,
2013-03-04 17:37:00,52.6,40.0,29.75,ESE,112,0.0,2.0,62,0.00,,---,0.00,VWS V14.01,2013-03-04 23:37:00,
2013-03-04 17:40:00,52.5,39.9,29.75,ESE,112,0.0,2.0,62,0.00,,---,0.00,VWS V14.01,2013-03-04 23:40:00,
2013-03-04 17:41:00,52.5,39.9,29.75,ESE,112,0.0,2.0,62,0.00,,---,0.00,VWS V14.01,2013-03-04 23:41:00,
2013-03-04 17:43:00,52.5,40.3,29.75,ESE,112,0.0,2.0,63,0.00,,---,0.00,VWS V14.01,2013-03-04 23:43:00,
2013-03-04 17:45:00,52.4,39.8,29.75,ESE,112,0.0,2.0,62,0.00,,---,0.00,VWS V14.01,2013-03-04 23:45:00,
2013-03-04 17:46:00,52.5,39.9,29.75,ESE,112,0.0,2.0,62,0.00,,---,0.00,VWS V14.01,2013-03-04 23:46:00,
2013-03-04 17:48:00,52.5,39.9,29.75,ESE,112,0.0,2.0,62,0.00,,---,0.00,VWS V14.01,2013-03-04 23:48:00,
2013-03-04 17:51:00,52.5,39.9,29.75,ESE,112,0.0,2.0,62,0.00,,---,0.00,VWS V14.01,2013-03-04 23:51:00,
2013-03-04 17:53:00,52.4,39.8,29.76,ESE,112,0.0,2.0,62,0.00,,---,0.00,VWS V14.01,2013-03-04 23:53:00,
2013-03-04 17:56:00,52.4,39.8,29.76,ESE,112,0.0,2.0,62,0.00,,---,0.00,VWS V14.01,2013-03-04 23:56:00,
2013-03-04 17:58:00,52.2,40.0,29.76,ESE,112,0.0,0.0,63,0.00,,---,0.00,VWS V14.01,2013-03-04 23:58:00,
2013-03-04 18:00:00,51.7,39.9,29.77,ENE,58,0.0,1.0,64,0.00,,---,0.00,VWS V14.01,2013-03-05 00:00:00,
2013-03-04 18:01:00,52.0,40.2,29.76,ESE,112,0.0,2.0,64,0.00,,---,0.00,VWS V14.01,2013-03-05 00:01:00,
2013-03-04 18:03:00,51.8,40.0,29.76,ESE,112,1.0,2.0,64,0.00,,---,0.00,VWS V14.01,2013-03-05 00:03:00,
2013-03-04 18:06:00,51.8,40.0,29.76,ESE,112,0.0,2.0,64,0.00,,---,0.00,VWS V14.01,2013-03-05 00:06:00,
2013-03-04 18:07:00,51.8,40.0,29.76,ESE,112,0.0,2.0,64,0.00,,---,0.00,VWS V14.01,2013-03-05 00:07:00,
2013-03-04 18:08:00,51.9,40.1,29.76,ESE,112,0.0,2.0,64,0.00,,---,0.00,VWS V14.01,2013-03-05 00:08:00,
2013-03-04 18:11:00,51.9,39.7,29.76,ESE,112,0.0,2.0,63,0.00,,---,0.00,VWS V14.01,2013-03-05 00:11:00,
2013-03-04 18:12:00,52.0,40.2,29.76,ESE,112,0.0,2.0,64,0.00,,---,0.00,VWS V14.01,2013-03-05 00:12:00,
2013-03-04 18:13:00,51.9,40.1,29.76,ESE,112,0.0,2.0,64,0.00,,---,0.00,VWS V14.01,2013-03-05 00:13:00,
2013-03-04 18:16:00,51.6,40.6,29.76,ESE,112,0.0,2.0,66,0.00,,---,0.00,VWS V14.01,2013-03-05 00:16:00,
2013-03-04 18:17:00,51.5,40.5,29.76,ESE,112,0.0,2.0,66,0.00,,---,0.00,VWS V14.01,2013-03-05 00:17:00,
2013-03-04 18:18:00,51.4,40.4,29.76,ESE,112,0.0,2.0,66,0.00,,---,0.00,VWS V14.01,2013-03-05 00:18:00,
2013-03-04 18:21:00,51.2,40.6,29.76,ESE,112,0.0,2.0,67,0.00,,---,0.00,VWS V14.01,2013-03-05 00:21:00,
2013-03-04 18:22:00,51.2,40.6,29.76,ESE,112,0.0,2.0,67,0.00,,---,0.00,VWS V14.01,2013-03-05 00:22:00,
2013-03-04 18:24:00,51.1,40.2,29.76,ESE,112,0.0,2.0,66,0.00,,---,0.00,VWS V14.01,2013-03-05 00:24:00,
2013-03-04 18:26:00,51.2,39.8,29.76,ESE,112,0.0,2.0,65,0.00,,---,0.00,VWS V14.01,2013-03-05 00:26:00,
2013-03-04 18:27:00,51.3,40.0,29.76,ESE,112,0.0,2.0,65,0.00,,---,0.00,VWS V14.01,2013-03-05 00:27:00,
2013-03-04 18:29:00,51.5,40.1,29.76,ESE,112,0.0,0.0,65,0.00,,---,0.00,VWS V14.01,2013-03-05 00:29:00,
2013-03-04 18:30:00,51.1,40.5,29.76,ENE,58,0.0,1.0,67,0.00,,---,0.00,VWS V14.01,2013-03-05 00:30:00,
2013-03-04 18:31:00,51.6,40.2,29.76,ESE,112,0.0,1.0,65,0.00,,---,0.00,VWS V14.01,2013-03-05 00:31:00,
2013-03-04 18:32:00,51.6,40.2,29.76,ESE,112,0.0,1.0,65,0.00,,---,0.00,VWS V14.01,2013-03-05 00:32:00,
2013-03-04 18:34:00,51.6,39.8,29.76,ESE,112,0.0,1.0,64,0.00,,---,0.00,VWS V14.01,2013-03-05 00:34:00,
2013-03-04 18:36:00,51.6,40.2,29.76,ESE,112,0.0,1.0,65,0.00,,---,0.00,VWS V14.01,2013-03-05 00:36:00,
2013-03-04 18:37:00,51.5,40.1,29.76,ESE,112,0.0,1.0,65,0.00,,---,0.00,VWS V14.01,2013-03-05 00:37:00,
2013-03-04 18:39:00,51.6,40.2,29.77,ESE,112,0.0,1.0,65,0.00,,---,0.00,VWS V14.01,2013-03-05 00:39:00,
2013-03-04 18:41:00,51.6,40.2,29.76,ESE,112,0.0,1.0,65,0.00,,---,0.00,VWS V14.01,2013-03-05 00:41:00,
2013-03-04 18:42:00,51.7,39.9,29.76,ESE,112,0.0,1.0,64,0.00,,---,0.00,VWS V14.01,2013-03-05 00:42:00,
2013-03-04 18:44:00,51.7,39.9,29.76,ESE,112,0.0,1.0,64,0.00,,---,0.00,VWS V14.01,2013-03-05 00:44:00,
2013-03-04 18:46:00,51.6,39.8,29.76,ESE,112,0.0,1.0,64,0.00,,---,0.00,VWS V14.01,2013-03-05 00:46:00,
2013-03-04 18:47:00,51.7,39.9,29.76,ESE,112,0.0,1.0,64,0.00,,---,0.00,VWS V14.01,2013-03-05 00:47:00,
2013-03-04 18:48:00,51.7,39.9,29.76,ESE,112,0.0,1.0,64,0.00,,---,0.00,VWS V14.01,2013-03-05 00:48:00,
2013-03-04 18:49:00,51.7,39.9,29.77,ESE,112,0.0,1.0,64,0.00,,---,0.00,VWS V14.01,2013-03-05 00:49:00,
2013-03-04 18:51:00,51.7,39.9,29.77,ESE,112,0.0,1.0,64,0.00,,---,0.00,VWS V14.01,2013-03-05 00:51:00,
2013-03-04 18:52:00,51.7,39.9,29.77,ESE,112,0.0,1.0,64,0.00,,---,0.00,VWS V14.01,2013-03-05 00:52:00,
2013-03-04 18:53:00,51.7,39.9,29.77,ESE,112,0.0,1.0,64,0.00,,---,0.00,VWS V14.01,2013-03-05 00:53:00,
2013-03-04 18:54:00,51.7,39.9,29.77,ESE,112,0.0,1.0,64,0.00,,---,0.00,VWS V14.01,2013-03-05 00:54:00,
2013-03-04 18:56:00,51.7,39.9,29.77,ESE,112,0.0,1.0,64,0.00,,---,0.00,VWS V14.01,2013-03-05 00:56:00,
2013-03-04 18:57:00,51.7,39.9,29.77,ENE,58,0.0,0.0,64,0.00,,---,0.00,VWS V14.01,2013-03-05 00:57:00,
2013-03-04 18:58:00,51.7,39.9,29.77,ENE,58,0.0,0.0,64,0.00,,---,0.00,VWS V14.01,2013-03-05 00:58:00,
2013-03-04 19:00:00,51.5,40.1,29.77,ENE,58,0.0,0.0,65,0.00,,---,0.00,VWS V14.01,2013-03-05 01:00:00,
2013-03-04 19:01:00,51.5,40.1,29.77,ENE,58,0.0,0.0,65,0.00,,---,0.00,VWS V14.01,2013-03-05 01:01:00,
2013-03-04 19:02:00,51.5,40.1,29.77,ENE,58,0.0,0.0,65,0.00,,---,0.00,VWS V14.01,2013-03-05 01:02:00,
2013-03-04 19:03:00,51.5,40.1,29.77,ENE,58,0.0,0.0,65,0.00,,---,0.00,VWS V14.01,2013-03-05 01:03:00,
2013-03-04 19:05:00,51.4,40.0,29.77,ENE,58,0.0,0.0,65,0.00,,---,0.00,VWS V14.01,2013-03-05 01:05:00,
2013-03-04 19:06:00,51.2,40.2,29.77,ENE,58,0.0,1.0,66,0.00,,---,0.00,VWS V14.01,2013-03-05 01:06:00,
2013-03-04 19:08:00,51.2,40.2,29.77,ENE,58,0.0,1.0,66,0.00,,---,0.00,VWS V14.01,2013-03-05 01:08:00,
2013-03-04 19:10:00,51.3,40.0,29.77,ENE,58,0.0,1.0,65,0.00,,---,0.00,VWS V14.01,2013-03-05 01:10:00,
2013-03-04 19:11:00,51.3,40.3,29.77,ENE,58,0.0,1.0,66,0.00,,---,0.00,VWS V14.01,2013-03-05 01:11:00,
2013-03-04 19:13:00,51.3,40.0,29.77,ENE,58,0.0,1.0,65,0.00,,---,0.00,VWS V14.01,2013-03-05 01:13:00,
2013-03-04 19:15:00,51.4,40.0,29.77,ENE,58,0.0,1.0,65,0.00,,---,0.00,VWS V14.01,2013-03-05 01:15:00,
2013-03-04 19:16:00,51.5,40.1,29.77,ENE,58,0.0,1.0,65,0.00,,---,0.00,VWS V14.01,2013-03-05 01:16:00,
2013-03-04 19:18:00,51.5,40.1,29.77,ENE,58,0.0,1.0,65,0.00,,---,0.00,VWS V14.01,2013-03-05 01:18:00,
2013-03-04 19:21:00,51.5,40.1,29.77,ENE,58,0.0,1.0,65,0.00,,---,0.00,VWS V14.01,2013-03-05 01:21:00,
2013-03-04 19:23:00,51.4,40.4,29.76,ENE,58,0.0,1.0,66,0.00,,---,0.00,VWS V14.01,2013-03-05 01:23:00,
2013-03-04 19:26:00,51.3,40.3,29.76,ENE,58,0.0,1.0,66,0.00,,---,0.00,VWS V14.01,2013-03-05 01:26:00,
2013-03-04 19:28:00,51.1,40.5,29.76,ENE,58,0.0,0.0,67,0.00,,---,0.00,VWS V14.01,2013-03-05 01:28:00,
2013-03-04 19:30:00,51.5,40.5,29.76,East,93,0.0,2.0,66,0.00,,---,0.00,VWS V14.01,2013-03-05 01:30:00,
2013-03-04 19:31:00,50.9,40.7,29.75,ENE,58,0.0,0.0,68,0.00,,---,0.00,VWS V14.01,2013-03-05 01:31:00,
2013-03-04 19:33:00,50.8,41.0,29.75,ENE,58,0.0,1.0,69,0.00,,---,0.00,VWS V14.01,2013-03-05 01:33:00,
2013-03-04 19:34:00,50.5,41.1,29.75,ENE,58,0.0,1.0,70,0.00,,---,0.00,VWS V14.01,2013-03-05 01:34:00,
2013-03-04 19:36:00,50.2,40.8,29.76,ENE,58,2.0,2.0,70,0.00,,---,0.00,VWS V14.01,2013-03-05 01:36:00,
2013-03-04 19:37:00,50.2,40.8,29.76,ENE,58,1.0,2.0,70,0.00,,---,0.00,VWS V14.01,2013-03-05 01:37:00,
2013-03-04 19:38:00,50.1,40.7,29.76,ENE,58,0.0,2.0,70,0.00,,---,0.00,VWS V14.01,2013-03-05 01:38:00,
2013-03-04 19:39:00,50.0,40.6,29.76,ENE,58,0.0,2.0,70,0.00,,---,0.00,VWS V14.01,2013-03-05 01:39:00,
2013-03-04 19:41:00,50.1,40.3,29.76,ENE,58,0.0,2.0,69,0.00,,---,0.00,VWS V14.01,2013-03-05 01:41:00,
2013-03-04 19:42:00,50.1,40.3,29.76,ENE,58,0.0,2.0,69,0.00,,---,0.00,VWS V14.01,2013-03-05 01:42:00,
2013-03-04 19:43:00,50.2,40.4,29.76,ENE,58,2.0,2.0,69,0.00,,---,0.00,VWS V14.01,2013-03-05 01:43:00,
2013-03-04 19:44:00,50.4,39.9,29.76,ENE,60,2.0,2.0,67,0.00,,---,0.00,VWS V14.01,2013-03-05 01:44:00,
2013-03-04 19:46:00,50.6,40.1,29.76,ENE,60,0.0,2.0,67,0.00,,---,0.00,VWS V14.01,2013-03-05 01:46:00,
2013-03-04 19:47:00,50.6,40.1,29.76,ENE,60,0.0,2.0,67,0.00,,---,0.00,VWS V14.01,2013-03-05 01:47:00,
2013-03-04 19:48:00,50.8,39.9,29.76,ENE,60,0.0,2.0,66,0.00,,---,0.00,VWS V14.01,2013-03-05 01:48:00,
2013-03-04 19:49:00,50.9,40.0,29.76,ENE,60,0.0,2.0,66,0.00,,---,0.00,VWS V14.01,2013-03-05 01:49:00,
2013-03-04 19:52:00,50.9,40.3,29.76,ENE,60,0.0,2.0,67,0.00,,---,0.00,VWS V14.01,2013-03-05 01:52:00,
2013-03-04 19:53:00,50.8,40.2,29.76,ENE,60,0.0,2.0,67,0.00,,---,0.00,VWS V14.01,2013-03-05 01:53:00,
2013-03-04 19:55:00,50.8,39.9,29.76,ENE,60,0.0,2.0,66,0.00,,---,0.00,VWS V14.01,2013-03-05 01:55:00,
2013-03-04 19:57:00,50.9,40.0,29.76,ENE,60,0.0,2.0,66,0.00,,---,0.00,VWS V14.01,2013-03-05 01:57:00,
2013-03-04 19:58:00,50.9,40.3,29.76,ENE,60,0.0,0.0,67,0.00,,---,0.00,VWS V14.01,2013-03-05 01:58:00,
2013-03-04 20:00:00,50.8,40.2,29.76,ENE,60,0.0,0.0,67,0.00,,---,0.00,VWS V14.01,2013-03-05 02:00:00,
2013-03-04 20:02:00,50.7,40.2,29.76,ENE,60,0.0,0.0,67,0.00,,---,0.00,VWS V14.01,2013-03-05 02:02:00,
2013-03-04 20:03:00,50.7,40.2,29.76,ENE,60,0.0,0.0,67,0.00,,---,0.00,VWS V14.01,2013-03-05 02:03:00,
2013-03-04 20:05:00,50.6,40.1,29.76,ENE,60,0.0,0.0,67,0.00,,---,0.00,VWS V14.01,2013-03-05 02:05:00,
2013-03-04 20:07:00,50.7,39.8,29.76,ENE,60,0.0,0.0,66,0.00,,---,0.00,VWS V14.01,2013-03-05 02:07:00,
2013-03-04 20:08:00,50.8,39.9,29.76,ENE,60,0.0,0.0,66,0.00,,---,0.00,VWS V14.01,2013-03-05 02:08:00,
2013-03-04 20:10:00,50.9,40.0,29.76,ENE,60,0.0,0.0,66,0.00,,---,0.00,VWS V14.01,2013-03-05 02:10:00,
2013-03-04 20:12:00,50.9,40.0,29.76,ENE,60,0.0,0.0,66,0.00,,---,0.00,VWS V14.01,2013-03-05 02:12:00,
2013-03-04 20:13:00,50.8,40.6,29.76,ENE,60,0.0,0.0,68,0.00,,---,0.00,VWS V14.01,2013-03-05 02:13:00,
2013-03-04 20:15:00,50.7,40.2,29.76,ENE,60,0.0,0.0,67,0.00,,---,0.00,VWS V14.01,2013-03-05 02:15:00,
2013-03-04 20:17:00,50.7,40.2,29.76,East,93,0.0,2.0,67,0.00,,---,0.00,VWS V14.01,2013-03-05 02:17:00,
2013-03-04 20:19:00,50.7,40.2,29.76,East,93,1.0,2.0,67,0.00,,---,0.00,VWS V14.01,2013-03-05 02:19:00,
2013-03-04 20:20:00,50.8,40.2,29.76,East,93,0.0,2.0,67,0.00,,---,0.00,VWS V14.01,2013-03-05 02:20:00,
2013-03-04 20:22:00,51.0,40.4,29.76,East,93,0.0,2.0,67,0.00,,---,0.00,VWS V14.01,2013-03-05 02:22:00,
2013-03-04 20:23:00,51.2,40.6,29.76,East,93,0.0,2.0,67,0.00,,---,0.00,VWS V14.01,2013-03-05 02:23:00,
2013-03-04 20:24:00,51.2,40.6,29.76,East,93,0.0,2.0,67,0.00,,---,0.00,VWS V14.01,2013-03-05 02:24:00,
2013-03-04 20:25:00,51.3,40.3,29.76,East,93,0.0,2.0,66,0.00,,---,0.00,VWS V14.01,2013-03-05 02:25:00,
2013-03-04 20:27:00,51.5,40.5,29.76,East,93,0.0,2.0,66,0.00,,---,0.00,VWS V14.01,2013-03-05 02:27:00,
2013-03-04 20:29:00,51.5,40.5,29.76,East,93,0.0,0.0,66,0.00,,---,0.00,VWS V14.01,2013-03-05 02:29:00,
2013-03-04 20:30:00,51.5,40.5,29.76,East,93,0.0,0.0,66,0.00,,---,0.00,VWS V14.01,2013-03-05 02:30:00,
2013-03-04 20:32:00,51.5,40.5,29.76,East,93,0.0,0.0,66,0.00,,---,0.00,VWS V14.01,2013-03-05 02:32:00,
2013-03-04 20:34:00,51.5,40.5,29.76,East,93,0.0,0.0,66,0.00,,---,0.00,VWS V14.01,2013-03-05 02:34:00,
2013-03-04 20:35:00,51.6,40.6,29.76,East,93,2.0,2.0,66,0.00,,---,0.00,VWS V14.01,2013-03-05 02:35:00,
2013-03-04 20:37:00,51.7,40.7,29.76,East,93,0.0,2.0,66,0.00,,---,0.00,VWS V14.01,2013-03-05 02:37:00,
2013-03-04 20:39:00,51.5,41.7,29.76,East,93,1.0,2.0,69,0.00,,---,0.00,VWS V14.01,2013-03-05 02:39:00,
2013-03-04 20:42:00,51.0,41.2,29.76,East,93,1.0,2.0,69,0.00,,---,0.00,VWS V14.01,2013-03-05 02:42:00,
2013-03-04 20:44:00,50.9,41.1,29.76,ESE,121,3.0,3.0,69,0.00,,---,0.00,VWS V14.01,2013-03-05 02:44:00,
2013-03-04 20:45:00,50.9,41.1,29.76,ESE,121,2.0,3.0,69,0.00,,---,0.00,VWS V14.01,2013-03-05 02:45:00,
2013-03-04 20:47:00,50.9,41.1,29.76,ESE,121,2.0,3.0,69,0.00,,---,0.00,VWS V14.01,2013-03-05 02:47:00,
2013-03-04 20:49:00,51.0,40.8,29.76,ESE,121,0.0,3.0,68,0.00,,---,0.00,VWS V14.01,2013-03-05 02:49:00,
2013-03-04 20:50:00,51.0,40.8,29.76,ESE,121,0.0,3.0,68,0.00,,---,0.00,VWS V14.01,2013-03-05 02:50:00,
2013-03-04 20:52:00,51.2,41.0,29.76,ESE,121,0.0,3.0,68,0.00,,---,0.00,VWS V14.01,2013-03-05 02:52:00,
2013-03-04 20:54:00,51.2,41.0,29.76,ESE,121,1.0,3.0,68,0.00,,---,0.00,VWS V14.01,2013-03-05 02:54:00,
2013-03-04 20:55:00,51.2,41.0,29.76,ESE,121,2.0,3.0,68,0.00,,---,0.00,VWS V14.01,2013-03-05 02:55:00,
2013-03-04 20:57:00,51.2,41.0,29.76,ESE,121,2.0,3.0,68,0.00,,---,0.00,VWS V14.01,2013-03-05 02:57:00,
2013-03-04 20:59:00,51.2,41.0,29.76,ESE,121,3.0,4.0,68,0.00,,---,0.00,VWS V14.01,2013-03-05 02:59:00,
2013-03-04 21:00:00,51.2,41.0,29.76,ESE,120,2.0,4.0,68,0.00,,---,0.00,VWS V14.01,2013-03-05 03:00:00,
2013-03-04 21:02:00,51.1,41.3,29.76,ESE,121,3.0,4.0,69,0.00,,---,0.00,VWS V14.01,2013-03-05 03:02:00,
2013-03-04 21:04:00,51.0,41.2,29.76,ESE,121,2.0,4.0,69,0.00,,---,0.00,VWS V14.01,2013-03-05 03:04:00,
2013-03-04 21:05:00,50.9,41.1,29.76,ESE,121,2.0,4.0,69,0.00,,---,0.00,VWS V14.01,2013-03-05 03:05:00,
2013-03-04 21:07:00,50.8,41.0,29.77,ESE,121,1.0,4.0,69,0.00,,---,0.00,VWS V14.01,2013-03-05 03:07:00,
2013-03-04 21:09:00,50.7,41.3,29.77,ESE,121,1.0,4.0,70,0.00,,---,0.00,VWS V14.01,2013-03-05 03:09:00,
2013-03-04 21:10:00,50.7,41.3,29.77,ESE,121,2.0,4.0,70,0.00,,---,0.00,VWS V14.01,2013-03-05 03:10:00,
2013-03-04 21:12:00,50.6,41.2,29.77,ESE,120,4.0,4.0,70,0.00,,---,0.00,VWS V14.01,2013-03-05 03:12:00,
2013-03-04 21:15:00,50.6,41.2,29.77,ESE,112,5.0,6.0,70,0.00,,---,0.00,VWS V14.01,2013-03-05 03:15:00,
2013-03-04 21:17:00,50.6,41.6,29.77,East,99,1.0,6.0,71,0.00,,---,0.00,VWS V14.01,2013-03-05 03:17:00,
2013-03-04 21:18:00,50.5,41.5,29.77,East,99,2.0,6.0,71,0.00,,---,0.00,VWS V14.01,2013-03-05 03:18:00,
2013-03-04 21:20:00,50.4,41.7,29.77,East,99,1.0,6.0,72,0.00,,---,0.00,VWS V14.01,2013-03-05 03:20:00,
2013-03-04 21:22:00,50.3,41.6,29.77,East,99,1.0,6.0,72,0.00,,---,0.00,VWS V14.01,2013-03-05 03:22:00,
2013-03-04 21:23:00,50.3,41.6,29.77,East,99,0.0,6.0,72,0.00,,---,0.00,VWS V14.01,2013-03-05 03:23:00,
2013-03-04 21:25:00,50.3,41.6,29.77,East,99,1.0,6.0,72,0.00,,---,0.00,VWS V14.01,2013-03-05 03:25:00,
2013-03-04 21:28:00,50.3,41.6,29.77,East,99,0.0,0.0,72,0.00,,---,0.00,VWS V14.01,2013-03-05 03:28:00,
2013-03-04 21:30:00,50.4,41.7,29.77,East,99,0.0,0.0,72,0.00,,---,0.00,VWS V14.01,2013-03-05 03:30:00,
2013-03-04 21:33:00,50.4,41.7,29.77,East,99,1.0,1.0,72,0.00,,---,0.00,VWS V14.01,2013-03-05 03:33:00,
2013-03-04 21:35:00,50.3,42.0,29.77,East,99,1.0,3.0,73,0.00,,---,0.00,VWS V14.01,2013-03-05 03:35:00,
2013-03-04 21:36:00,50.3,42.0,29.77,East,99,0.0,3.0,73,0.00,,---,0.00,VWS V14.01,2013-03-05 03:36:00,
2013-03-04 21:38:00,50.0,42.0,29.77,East,99,0.0,3.0,74,0.00,,---,0.00,VWS V14.01,2013-03-05 03:38:00,
2013-03-04 21:40:00,49.7,42.1,29.77,East,99,0.0,3.0,75,0.00,,---,0.00,VWS V14.01,2013-03-05 03:40:00,
2013-03-04 21:41:00,49.7,42.1,29.77,East,99,0.0,3.0,75,0.00,,---,0.00,VWS V14.01,2013-03-05 03:41:00,
2013-03-04 21:43:00,49.5,41.9,29.77,East,99,0.0,3.0,75,0.00,,---,0.00,VWS V14.01,2013-03-05 03:43:00,
2013-03-04 21:45:00,49.5,42.3,29.77,East,99,0.0,3.0,76,0.00,,---,0.00,VWS V14.01,2013-03-05 03:45:00,
2013-03-04 21:46:00,49.4,42.2,29.77,East,99,0.0,3.0,76,0.00,,---,0.00,VWS V14.01,2013-03-05 03:46:00,
2013-03-04 21:48:00,49.4,42.2,29.77,East,99,1.0,3.0,76,0.00,,---,0.00,VWS V14.01,2013-03-05 03:48:00,
2013-03-04 21:50:00,49.2,43.0,29.77,East,99,3.0,3.0,79,0.00,,---,0.00,VWS V14.01,2013-03-05 03:50:00,
2013-03-04 21:51:00,49.1,43.2,29.77,East,99,2.0,3.0,80,0.00,,---,0.00,VWS V14.01,2013-03-05 03:51:00,
2013-03-04 21:53:00,48.7,43.1,29.77,East,99,2.0,3.0,81,0.00,,---,0.00,VWS V14.01,2013-03-05 03:53:00,
2013-03-04 21:54:00,48.6,42.7,29.77,East,99,2.0,3.0,80,0.00,,---,0.00,VWS V14.01,2013-03-05 03:54:00,
2013-03-04 21:56:00,48.3,43.1,29.77,East,99,2.0,3.0,82,0.00,,---,0.00,VWS V14.01,2013-03-05 03:56:00,
2013-03-04 21:58:00,48.1,43.2,29.77,East,99,3.0,4.0,83,0.00,,---,0.00,VWS V14.01,2013-03-05 03:58:00,
2013-03-04 21:59:00,48.0,43.1,29.77,East,99,3.0,4.0,83,0.00,,---,0.00,VWS V14.01,2013-03-05 03:59:00,
2013-03-04 22:00:00,46.3,44.1,29.75,ESE,115,2.0,5.0,92,0.05,,---,0.05,VWS V14.01,2013-03-05 04:00:00,
2013-03-04 22:01:00,47.9,43.0,29.77,East,99,3.0,4.0,83,0.00,,---,0.00,VWS V14.01,2013-03-05 04:01:00,
2013-03-04 22:03:00,47.8,43.5,29.77,East,99,2.0,4.0,85,0.00,,---,0.00,VWS V14.01,2013-03-05 04:03:00,
2013-03-04 22:04:00,47.7,43.4,29.77,East,99,2.0,4.0,85,0.00,,---,0.00,VWS V14.01,2013-03-05 04:04:00,
2013-03-04 22:06:00,47.5,43.5,29.77,ESE,108,2.0,4.0,86,0.01,,---,0.01,VWS V14.01,2013-03-05 04:06:00,
2013-03-04 22:08:00,47.4,43.4,29.77,ESE,108,3.0,4.0,86,0.01,,---,0.01,VWS V14.01,2013-03-05 04:08:00,
2013-03-04 22:09:00,47.5,43.8,29.77,ESE,116,3.0,4.0,87,0.01,,---,0.01,VWS V14.01,2013-03-05 04:09:00,
2013-03-04 22:11:00,47.5,43.8,29.77,ESE,121,3.0,4.0,87,0.02,,---,0.02,VWS V14.01,2013-03-05 04:11:00,
2013-03-04 22:13:00,47.5,43.8,29.77,ESE,121,2.0,4.0,87,0.02,,---,0.02,VWS V14.01,2013-03-05 04:13:00,
2013-03-04 22:14:00,47.6,43.9,29.76,ESE,121,3.0,4.0,87,0.02,,---,0.02,VWS V14.01,2013-03-05 04:14:00,
2013-03-04 22:16:00,47.6,43.9,29.76,ESE,120,3.0,4.0,87,0.03,,---,0.03,VWS V14.01,2013-03-05 04:16:00,
2013-03-04 22:17:00,47.6,43.9,29.76,ESE,119,4.0,4.0,87,0.03,,---,0.03,VWS V14.01,2013-03-05 04:17:00,
2013-03-04 22:18:00,47.6,43.9,29.76,ESE,119,3.0,4.0,87,0.03,,---,0.03,VWS V14.01,2013-03-05 04:18:00,
2013-03-04 22:20:00,47.6,43.9,29.76,ESE,119,3.0,4.0,87,0.03,,---,0.03,VWS V14.01,2013-03-05 04:20:00,
2013-03-04 22:21:00,47.6,44.2,29.76,ESE,119,2.0,4.0,88,0.03,,---,0.03,VWS V14.01,2013-03-05 04:21:00,
2013-03-04 22:22:00,47.5,44.1,29.76,ESE,119,2.0,4.0,88,0.03,,---,0.03,VWS V14.01,2013-03-05 04:22:00,
2013-03-04 22:23:00,47.4,44.0,29.76,ESE,119,1.0,4.0,88,0.03,,---,0.03,VWS V14.01,2013-03-05 04:23:00,
2013-03-04 22:25:00,47.4,44.0,29.76,ESE,119,2.0,4.0,88,0.03,,---,0.03,VWS V14.01,2013-03-05 04:25:00,
2013-03-04 22:26:00,47.3,43.9,29.76,ESE,119,2.0,4.0,88,0.04,,---,0.04,VWS V14.01,2013-03-05 04:26:00,
2013-03-04 22:27:00,47.3,44.2,29.76,ESE,119,2.0,4.0,89,0.04,,---,0.04,VWS V14.01,2013-03-05 04:27:00,
2013-03-04 22:29:00,47.3,44.2,29.76,ESE,119,2.0,3.0,89,0.04,,---,0.04,VWS V14.01,2013-03-05 04:29:00,
2013-03-04 22:30:00,47.2,44.1,29.76,ESE,119,2.0,3.0,89,0.04,,---,0.04,VWS V14.01,2013-03-05 04:30:00,
2013-03-04 22:31:00,47.2,44.1,29.76,ESE,119,2.0,3.0,89,0.04,,---,0.04,VWS V14.01,2013-03-05 04:31:00,
2013-03-04 22:32:00,47.2,44.1,29.76,ESE,119,1.0,3.0,89,0.05,,---,0.05,VWS V14.01,2013-03-05 04:32:00,
2013-03-04 22:34:00,47.2,44.1,29.75,ESE,119,2.0,3.0,89,0.05,,---,0.05,VWS V14.01,2013-03-05 04:34:00,
2013-03-04 22:35:00,47.2,44.4,29.75,ESE,119,2.0,3.0,90,0.05,,---,0.05,VWS V14.01,2013-03-05 04:35:00,
2013-03-04 22:36:00,47.1,44.3,29.75,ESE,119,1.0,3.0,90,0.05,,---,0.05,VWS V14.01,2013-03-05 04:36:00,
2013-03-04 22:37:00,47.1,44.3,29.75,ESE,119,2.0,3.0,90,0.05,,---,0.05,VWS V14.01,2013-03-05 04:37:00,
2013-03-04 22:39:00,47.0,44.2,29.75,ESE,119,3.0,3.0,90,0.05,,---,0.05,VWS V14.01,2013-03-05 04:39:00,
2013-03-04 22:40:00,46.9,44.1,29.75,ESE,115,4.0,4.0,90,0.05,,---,0.05,VWS V14.01,2013-03-05 04:40:00,
2013-03-04 22:41:00,46.9,44.1,29.75,ESE,115,3.0,4.0,90,0.05,,---,0.05,VWS V14.01,2013-03-05 04:41:00,
2013-03-04 22:42:00,46.9,44.1,29.75,ESE,115,3.0,4.0,90,0.05,,---,0.05,VWS V14.01,2013-03-05 04:42:00,
2013-03-04 22:44:00,46.8,44.3,29.75,ESE,115,3.0,4.0,91,0.05,,---,0.05,VWS V14.01,2013-03-05 04:44:00,
2013-03-04 22:45:00,46.8,44.3,29.75,ESE,115,4.0,4.0,91,0.05,,---,0.05,VWS V14.01,2013-03-05 04:45:00,
2013-03-04 22:46:00,46.8,44.3,29.75,ESE,115,4.0,5.0,91,0.05,,---,0.05,VWS V14.01,2013-03-05 04:46:00,
2013-03-04 22:47:00,46.8,44.3,29.75,ESE,115,3.0,5.0,91,0.05,,---,0.05,VWS V14.01,2013-03-05 04:47:00,
2013-03-04 22:49:00,46.8,44.3,29.74,ESE,115,4.0,5.0,91,0.05,,---,0.05,VWS V14.01,2013-03-05 04:49:00,
2013-03-04 22:50:00,46.7,44.2,29.74,ESE,115,4.0,5.0,91,0.05,,---,0.05,VWS V14.01,2013-03-05 04:50:00,
2013-03-04 22:51:00,46.7,44.2,29.74,ESE,115,3.0,5.0,91,0.05,,---,0.05,VWS V14.01,2013-03-05 04:51:00,
2013-03-04 22:52:00,46.6,44.1,29.74,ESE,115,2.0,5.0,91,0.05,,---,0.05,VWS V14.01,2013-03-05 04:52:00,
2013-03-04 22:54:00,46.4,44.2,29.74,ESE,115,2.0,5.0,92,0.05,,---,0.05,VWS V14.01,2013-03-05 04:54:00,
2013-03-04 22:55:00,46.4,44.2,29.74,ESE,115,2.0,5.0,92,0.05,,---,0.05,VWS V14.01,2013-03-05 04:55:00,
2013-03-04 22:56:00,46.4,44.2,29.75,ESE,115,2.0,5.0,92,0.05,,---,0.05,VWS V14.01,2013-03-05 04:56:00,
2013-03-04 22:57:00,46.3,44.1,29.75,ESE,115,2.0,5.0,92,0.05,,---,0.05,VWS V14.01,2013-03-05 04:57:00,
2013-03-04 22:59:00,46.4,44.2,29.75,ESE,115,2.0,3.0,92,0.05,,---,0.05,VWS V14.01,2013-03-05 04:59:00,
2013-03-04 23:00:00,46.4,44.2,29.75,ESE,115,0.0,3.0,92,0.05,,---,0.05,VWS V14.01,2013-03-05 05:00:00,
2013-03-04 23:05:00,46.6,44.4,29.75,ESE,115,0.0,3.0,92,0.05,,---,0.05,VWS V14.01,2013-03-05 05:05:00,
2013-03-04 23:06:00,46.6,44.4,29.74,ESE,115,0.0,3.0,92,0.05,,---,0.05,VWS V14.01,2013-03-05 05:06:00,
2013-03-04 23:10:00,46.6,44.4,29.74,ESE,115,0.0,3.0,92,0.05,,---,0.05,VWS V14.01,2013-03-05 05:10:00,
2013-03-04 23:11:00,46.6,44.4,29.74,ESE,115,0.0,3.0,92,0.05,,---,0.05,VWS V14.01,2013-03-05 05:11:00,
2013-03-04 23:15:00,46.7,44.2,29.74,ESE,115,2.0,3.0,91,0.05,,---,0.05,VWS V14.01,2013-03-05 05:15:00,
2013-03-04 23:16:00,46.8,44.3,29.74,ESE,115,1.0,3.0,91,0.05,,---,0.05,VWS V14.01,2013-03-05 05:16:00,
2013-03-04 23:20:00,46.9,44.4,29.73,ESE,115,1.0,3.0,91,0.05,,---,0.05,VWS V14.01,2013-03-05 05:20:00,
2013-03-04 23:21:00,46.9,44.4,29.74,ESE,115,0.0,3.0,91,0.05,,---,0.05,VWS V14.01,2013-03-05 05:21:00,
2013-03-04 23:25:00,46.7,44.2,29.74,ESE,115,0.0,3.0,91,0.05,,---,0.05,VWS V14.01,2013-03-05 05:25:00,
2013-03-04 23:26:00,46.6,44.1,29.74,ESE,115,0.0,3.0,91,0.05,,---,0.05,VWS V14.01,2013-03-05 05:26:00,
2013-03-04 23:30:00,46.4,44.2,29.74,ESE,115,0.0,2.0,92,0.01,,---,0.05,VWS V14.01,2013-03-05 05:30:00,
2013-03-04 23:31:00,46.4,44.2,29.74,ESE,115,0.0,2.0,92,0.01,,---,0.05,VWS V14.01,2013-03-05 05:31:00,
2013-03-04 23:35:00,46.5,44.3,29.74,ESE,115,0.0,2.0,92,0.01,,---,0.05,VWS V14.01,2013-03-05 05:35:00,
2013-03-04 23:36:00,46.5,44.3,29.74,ESE,115,0.0,2.0,92,0.01,,---,0.05,VWS V14.01,2013-03-05 05:36:00,
2013-03-04 23:40:00,46.7,44.2,29.74,ESE,115,0.0,2.0,91,0.01,,---,0.05,VWS V14.01,2013-03-05 05:40:00,
2013-03-04 23:41:00,46.6,44.1,29.74,ESE,115,0.0,2.0,91,0.01,,---,0.05,VWS V14.01,2013-03-05 05:41:00,
2013-03-04 23:42:00,46.6,44.4,29.74,ESE,115,0.0,2.0,92,0.01,,---,0.05,VWS V14.01,2013-03-05 05:42:00,
2013-03-04 23:45:00,46.3,44.1,29.73,ESE,115,0.0,2.0,92,0.01,,---,0.05,VWS V14.01,2013-03-05 05:45:00,
2013-03-04 23:46:00,46.3,44.1,29.73,ESE,115,0.0,2.0,92,0.01,,---,0.05,VWS V14.01,2013-03-05 05:46:00,
2013-03-04 23:47:00,46.3,44.1,29.73,ESE,115,0.0,2.0,92,0.01,,---,0.05,VWS V14.01,2013-03-05 05:47:00,
2013-03-04 23:50:00,46.1,44.2,29.73,ESE,115,0.0,2.0,93,0.01,,---,0.05,VWS V14.01,2013-03-05 05:50:00,
2013-03-04 23:51:00,46.1,44.2,29.73,ESE,115,1.0,2.0,93,0.01,,---,0.05,VWS V14.01,2013-03-05 05:51:00,
2013-03-04 23:52:00,46.1,44.2,29.73,ESE,115,1.0,2.0,93,0.01,,---,0.05,VWS V14.01,2013-03-05 05:52:00,
2013-03-04 23:55:00,46.0,44.4,29.73,ESE,115,1.0,2.0,94,0.01,,---,0.05,VWS V14.01,2013-03-05 05:55:00,
2013-03-04 23:56:00,45.9,44.3,29.73,ESE,115,0.0,2.0,94,0.01,,---,0.05,VWS V14.01,2013-03-05 05:56:00,
2013-03-04 23:57:00,45.8,44.2,29.73,ESE,115,0.0,2.0,94,0.01,,---,0.05,VWS V14.01,2013-03-05 05:57:00,